<?xml version="1.0" encoding="UTF-8" standalone="no" ?>
<gpx xmlns="http://www.topografix.com/GPX/1/1" xmlns:xsi="http://www.w3.org/2001/XMLSchema-instance" xsi:schemaLocation="http://www.topografix.com/GPX/1/1 http://www.topografix.com/GPX/1/1/gpx.xsd" version="1.1" creator="VisuGPX - https://www.visugpx.com">
  <metadata>
    <name>Boucle Sarlat 2016</name>
  </metadata>
  <trk>
    <name><![CDATA[Jour 3]]></name>
    <trkseg>
      <trkpt lat="44.91186" lon="0.91428">
        <ele>59</ele>
        <time>2019-02-03T04:33:00.000Z</time>
      </trkpt>
      <trkpt lat="44.91186" lon="0.91428">
        <ele>59</ele>
        <time>2019-02-03T04:33:00.000Z</time>
      </trkpt>
      <trkpt lat="44.91138" lon="0.91427">
        <ele>60</ele>
        <time>2019-02-03T04:34:00.000Z</time>
      </trkpt>
      <trkpt lat="44.91119" lon="0.9143">
        <ele>59</ele>
        <time>2019-02-03T04:35:00.000Z</time>
      </trkpt>
      <trkpt lat="44.91182" lon="0.91665">
        <ele>57</ele>
        <time>2019-02-01T20:33:28.000Z</time>
      </trkpt>
      <trkpt lat="44.91178" lon="0.91681">
        <ele>57</ele>
        <time>2019-02-01T20:34:28.000Z</time>
      </trkpt>
      <trkpt lat="44.91146" lon="0.91758">
        <ele>56</ele>
        <time>2019-02-01T20:35:28.000Z</time>
      </trkpt>
      <trkpt lat="44.91153" lon="0.91791">
        <ele>56</ele>
        <time>2019-02-01T20:36:28.000Z</time>
      </trkpt>
      <trkpt lat="44.91203" lon="0.91747">
        <ele>57</ele>
        <time>2019-02-01T20:37:28.000Z</time>
      </trkpt>
      <trkpt lat="44.91245" lon="0.91754">
        <ele>57</ele>
        <time>2019-02-01T20:38:28.000Z</time>
      </trkpt>
      <trkpt lat="44.91311" lon="0.91822">
        <ele>55</ele>
        <time>2019-02-01T20:39:28.000Z</time>
      </trkpt>
      <trkpt lat="44.91373" lon="0.9189">
        <ele>56</ele>
        <time>2019-02-01T20:40:28.000Z</time>
      </trkpt>
      <trkpt lat="44.91444" lon="0.91936">
        <ele>56</ele>
        <time>2019-02-01T20:41:28.000Z</time>
      </trkpt>
      <trkpt lat="44.91503" lon="0.92022">
        <ele>56</ele>
        <time>2019-02-01T20:42:28.000Z</time>
      </trkpt>
      <trkpt lat="44.91561" lon="0.92115">
        <ele>54</ele>
        <time>2019-02-01T20:43:28.000Z</time>
      </trkpt>
      <trkpt lat="44.91561" lon="0.9224">
        <ele>53</ele>
        <time>2019-02-01T20:44:28.000Z</time>
      </trkpt>
      <trkpt lat="44.91601" lon="0.92341">
        <ele>56</ele>
        <time>2019-02-01T20:45:28.000Z</time>
      </trkpt>
      <trkpt lat="44.91647" lon="0.92434">
        <ele>56</ele>
        <time>2019-02-01T20:46:28.000Z</time>
      </trkpt>
      <trkpt lat="44.91671" lon="0.92539">
        <ele>58</ele>
        <time>2019-02-01T20:47:28.000Z</time>
      </trkpt>
      <trkpt lat="44.91654" lon="0.92617">
        <ele>59</ele>
        <time>2019-02-01T20:48:28.000Z</time>
      </trkpt>
      <trkpt lat="44.91678" lon="0.92647">
        <ele>60</ele>
        <time>2019-02-01T20:49:28.000Z</time>
      </trkpt>
      <trkpt lat="44.91813" lon="0.92714">
        <ele>62</ele>
        <time>2019-02-01T20:50:28.000Z</time>
      </trkpt>
      <trkpt lat="44.91857" lon="0.92702">
        <ele>62</ele>
        <time>2019-02-01T20:51:28.000Z</time>
      </trkpt>
      <trkpt lat="44.91916" lon="0.92696">
        <ele>62</ele>
        <time>2019-02-01T20:52:28.000Z</time>
      </trkpt>
      <trkpt lat="44.91991" lon="0.92688">
        <ele>62</ele>
        <time>2019-02-01T20:53:28.000Z</time>
      </trkpt>
      <trkpt lat="44.92032" lon="0.92741">
        <ele>66</ele>
        <time>2019-02-01T20:54:28.000Z</time>
      </trkpt>
      <trkpt lat="44.92046" lon="0.92772">
        <ele>68</ele>
        <time>2019-02-01T20:55:28.000Z</time>
      </trkpt>
      <trkpt lat="44.92079" lon="0.92795">
        <ele>72</ele>
        <time>2019-02-01T20:56:28.000Z</time>
      </trkpt>
      <trkpt lat="44.92057" lon="0.92796">
        <ele>71</ele>
        <time>2019-02-01T20:57:28.000Z</time>
      </trkpt>
      <trkpt lat="44.92056" lon="0.92813">
        <ele>73</ele>
        <time>2019-02-01T20:58:28.000Z</time>
      </trkpt>
      <trkpt lat="44.92045" lon="0.92856">
        <ele>77</ele>
        <time>2019-02-01T20:59:28.000Z</time>
      </trkpt>
      <trkpt lat="44.92042" lon="0.92887">
        <ele>81</ele>
        <time>2019-02-01T21:00:28.000Z</time>
      </trkpt>
      <trkpt lat="44.92032" lon="0.9292">
        <ele>84</ele>
        <time>2019-02-01T21:01:28.000Z</time>
      </trkpt>
      <trkpt lat="44.92021" lon="0.92955">
        <ele>85</ele>
        <time>2019-02-01T21:02:28.000Z</time>
      </trkpt>
      <trkpt lat="44.9202" lon="0.92996">
        <ele>88</ele>
        <time>2019-02-01T21:03:28.000Z</time>
      </trkpt>
      <trkpt lat="44.92017" lon="0.93026">
        <ele>88</ele>
        <time>2019-02-01T21:04:28.000Z</time>
      </trkpt>
      <trkpt lat="44.92025" lon="0.93085">
        <ele>91</ele>
        <time>2019-02-01T21:05:28.000Z</time>
      </trkpt>
      <trkpt lat="44.92035" lon="0.93109">
        <ele>94</ele>
        <time>2019-02-01T21:06:28.000Z</time>
      </trkpt>
      <trkpt lat="44.92047" lon="0.93127">
        <ele>97</ele>
        <time>2019-02-01T21:07:28.000Z</time>
      </trkpt>
      <trkpt lat="44.92068" lon="0.93169">
        <ele>101</ele>
        <time>2019-02-01T21:08:28.000Z</time>
      </trkpt>
      <trkpt lat="44.92084" lon="0.93172">
        <ele>104</ele>
        <time>2019-02-01T21:09:28.000Z</time>
      </trkpt>
      <trkpt lat="44.92107" lon="0.93219">
        <ele>112</ele>
        <time>2019-02-01T21:10:28.000Z</time>
      </trkpt>
      <trkpt lat="44.92118" lon="0.9322">
        <ele>114</ele>
        <time>2019-02-01T21:11:28.000Z</time>
      </trkpt>
      <trkpt lat="44.92128" lon="0.93257">
        <ele>118</ele>
        <time>2019-02-01T21:12:28.000Z</time>
      </trkpt>
      <trkpt lat="44.92137" lon="0.93303">
        <ele>123</ele>
        <time>2019-02-01T21:13:28.000Z</time>
      </trkpt>
      <trkpt lat="44.92112" lon="0.93317">
        <ele>121</ele>
        <time>2019-02-01T21:14:28.000Z</time>
      </trkpt>
      <trkpt lat="44.92099" lon="0.9333">
        <ele>121</ele>
        <time>2019-02-01T21:15:28.000Z</time>
      </trkpt>
      <trkpt lat="44.92088" lon="0.93363">
        <ele>124</ele>
        <time>2019-02-01T21:16:28.000Z</time>
      </trkpt>
      <trkpt lat="44.92088" lon="0.93391">
        <ele>127</ele>
        <time>2019-02-01T21:17:28.000Z</time>
      </trkpt>
      <trkpt lat="44.92102" lon="0.93405">
        <ele>129</ele>
        <time>2019-02-01T21:18:28.000Z</time>
      </trkpt>
      <trkpt lat="44.92101" lon="0.93435">
        <ele>132</ele>
        <time>2019-02-01T21:19:28.000Z</time>
      </trkpt>
      <trkpt lat="44.92112" lon="0.93456">
        <ele>135</ele>
        <time>2019-02-01T21:20:28.000Z</time>
      </trkpt>
      <trkpt lat="44.92109" lon="0.93478">
        <ele>136</ele>
        <time>2019-02-01T21:21:28.000Z</time>
      </trkpt>
      <trkpt lat="44.92119" lon="0.93513">
        <ele>140</ele>
        <time>2019-02-01T21:22:28.000Z</time>
      </trkpt>
      <trkpt lat="44.92113" lon="0.93525">
        <ele>139</ele>
        <time>2019-02-01T21:23:28.000Z</time>
      </trkpt>
      <trkpt lat="44.92126" lon="0.93548">
        <ele>143</ele>
        <time>2019-02-01T21:24:28.000Z</time>
      </trkpt>
      <trkpt lat="44.92135" lon="0.93583">
        <ele>147</ele>
        <time>2019-02-01T21:25:28.000Z</time>
      </trkpt>
      <trkpt lat="44.92137" lon="0.93618">
        <ele>147</ele>
        <time>2019-02-01T21:26:28.000Z</time>
      </trkpt>
      <trkpt lat="44.92142" lon="0.93649">
        <ele>148</ele>
        <time>2019-02-01T21:27:28.000Z</time>
      </trkpt>
      <trkpt lat="44.92163" lon="0.93724">
        <ele>154</ele>
        <time>2019-02-01T21:28:28.000Z</time>
      </trkpt>
      <trkpt lat="44.92171" lon="0.93768">
        <ele>157</ele>
        <time>2019-02-01T21:29:28.000Z</time>
      </trkpt>
      <trkpt lat="44.92168" lon="0.93801">
        <ele>158</ele>
        <time>2019-02-01T21:30:28.000Z</time>
      </trkpt>
      <trkpt lat="44.92168" lon="0.93819">
        <ele>159</ele>
        <time>2019-02-01T21:31:28.000Z</time>
      </trkpt>
      <trkpt lat="44.92169" lon="0.93852">
        <ele>162</ele>
        <time>2019-02-01T21:32:28.000Z</time>
      </trkpt>
      <trkpt lat="44.9218" lon="0.93885">
        <ele>167</ele>
        <time>2019-02-01T21:33:28.000Z</time>
      </trkpt>
      <trkpt lat="44.92175" lon="0.93912">
        <ele>169</ele>
        <time>2019-02-01T21:34:28.000Z</time>
      </trkpt>
      <trkpt lat="44.92188" lon="0.93962">
        <ele>174</ele>
        <time>2019-02-01T21:35:28.000Z</time>
      </trkpt>
      <trkpt lat="44.92215" lon="0.93996">
        <ele>177</ele>
        <time>2019-02-01T21:36:28.000Z</time>
      </trkpt>
      <trkpt lat="44.92219" lon="0.94023">
        <ele>179</ele>
        <time>2019-02-01T21:37:28.000Z</time>
      </trkpt>
      <trkpt lat="44.92224" lon="0.94079">
        <ele>183</ele>
        <time>2019-02-01T21:38:28.000Z</time>
      </trkpt>
      <trkpt lat="44.92238" lon="0.94136">
        <ele>184</ele>
        <time>2019-02-01T21:39:28.000Z</time>
      </trkpt>
      <trkpt lat="44.92246" lon="0.94176">
        <ele>183</ele>
        <time>2019-02-01T21:40:28.000Z</time>
      </trkpt>
      <trkpt lat="44.92254" lon="0.94196">
        <ele>183</ele>
        <time>2019-02-01T21:41:28.000Z</time>
      </trkpt>
      <trkpt lat="44.92266" lon="0.94196">
        <ele>184</ele>
        <time>2019-02-01T21:42:28.000Z</time>
      </trkpt>
      <trkpt lat="44.92255" lon="0.94194">
        <ele>183</ele>
        <time>2019-02-01T21:43:28.000Z</time>
      </trkpt>
      <trkpt lat="44.92264" lon="0.94204">
        <ele>183</ele>
        <time>2019-02-01T21:44:28.000Z</time>
      </trkpt>
      <trkpt lat="44.92291" lon="0.94262">
        <ele>183</ele>
        <time>2019-02-01T21:45:28.000Z</time>
      </trkpt>
      <trkpt lat="44.92344" lon="0.94292">
        <ele>186</ele>
        <time>2019-02-01T21:46:28.000Z</time>
      </trkpt>
      <trkpt lat="44.92385" lon="0.94327">
        <ele>186</ele>
        <time>2019-02-01T21:47:28.000Z</time>
      </trkpt>
      <trkpt lat="44.92421" lon="0.94374">
        <ele>187</ele>
        <time>2019-02-01T21:48:28.000Z</time>
      </trkpt>
      <trkpt lat="44.92436" lon="0.94388">
        <ele>187</ele>
        <time>2019-02-01T21:49:28.000Z</time>
      </trkpt>
      <trkpt lat="44.92419" lon="0.94368">
        <ele>187</ele>
        <time>2019-02-01T21:50:28.000Z</time>
      </trkpt>
      <trkpt lat="44.92371" lon="0.9431">
        <ele>186</ele>
        <time>2019-02-01T21:51:28.000Z</time>
      </trkpt>
      <trkpt lat="44.92315" lon="0.94247">
        <ele>186</ele>
        <time>2019-02-01T21:52:28.000Z</time>
      </trkpt>
      <trkpt lat="44.92228" lon="0.94184">
        <ele>182</ele>
        <time>2019-02-01T21:53:28.000Z</time>
      </trkpt>
      <trkpt lat="44.92223" lon="0.94121">
        <ele>183</ele>
        <time>2019-02-01T21:54:28.000Z</time>
      </trkpt>
      <trkpt lat="44.92213" lon="0.94039">
        <ele>180</ele>
        <time>2019-02-01T21:55:28.000Z</time>
      </trkpt>
      <trkpt lat="44.92236" lon="0.94076">
        <ele>183</ele>
        <time>2019-02-01T21:56:28.000Z</time>
      </trkpt>
      <trkpt lat="44.92236" lon="0.9416">
        <ele>184</ele>
        <time>2019-02-01T21:57:28.000Z</time>
      </trkpt>
      <trkpt lat="44.92289" lon="0.94233">
        <ele>184</ele>
        <time>2019-02-01T21:58:28.000Z</time>
      </trkpt>
      <trkpt lat="44.92344" lon="0.94288">
        <ele>186</ele>
        <time>2019-02-01T21:59:28.000Z</time>
      </trkpt>
      <trkpt lat="44.92388" lon="0.94337">
        <ele>186</ele>
        <time>2019-02-01T22:00:28.000Z</time>
      </trkpt>
      <trkpt lat="44.92431" lon="0.944">
        <ele>187</ele>
        <time>2019-02-01T22:01:28.000Z</time>
      </trkpt>
      <trkpt lat="44.92531" lon="0.94611">
        <ele>187</ele>
        <time>2019-02-01T22:02:28.000Z</time>
      </trkpt>
      <trkpt lat="44.92538" lon="0.94619">
        <ele>187</ele>
        <time>2019-02-01T22:03:28.000Z</time>
      </trkpt>
      <trkpt lat="44.92543" lon="0.94607">
        <ele>187</ele>
        <time>2019-02-01T22:04:28.000Z</time>
      </trkpt>
      <trkpt lat="44.92544" lon="0.94643">
        <ele>187</ele>
        <time>2019-02-01T22:05:28.000Z</time>
      </trkpt>
      <trkpt lat="44.92563" lon="0.94817">
        <ele>181</ele>
        <time>2019-02-01T22:06:28.000Z</time>
      </trkpt>
      <trkpt lat="44.92579" lon="0.94998">
        <ele>181</ele>
        <time>2019-02-01T22:07:28.000Z</time>
      </trkpt>
      <trkpt lat="44.92526" lon="0.95164">
        <ele>171</ele>
        <time>2019-02-01T22:08:28.000Z</time>
      </trkpt>
      <trkpt lat="44.92498" lon="0.95325">
        <ele>173</ele>
        <time>2019-02-01T22:09:28.000Z</time>
      </trkpt>
      <trkpt lat="44.92539" lon="0.95388">
        <ele>173</ele>
        <time>2019-02-01T22:10:28.000Z</time>
      </trkpt>
      <trkpt lat="44.92552" lon="0.95512">
        <ele>170</ele>
        <time>2019-02-01T22:11:28.000Z</time>
      </trkpt>
      <trkpt lat="44.92635" lon="0.95684">
        <ele>158</ele>
        <time>2019-02-01T22:12:28.000Z</time>
      </trkpt>
      <trkpt lat="44.92697" lon="0.95837">
        <ele>150</ele>
        <time>2019-02-01T22:13:28.000Z</time>
      </trkpt>
      <trkpt lat="44.92705" lon="0.95877">
        <ele>147</ele>
        <time>2019-02-01T22:14:28.000Z</time>
      </trkpt>
      <trkpt lat="44.92729" lon="0.95875">
        <ele>146</ele>
        <time>2019-02-01T22:15:28.000Z</time>
      </trkpt>
      <trkpt lat="44.92819" lon="0.95946">
        <ele>138</ele>
        <time>2019-02-01T22:16:28.000Z</time>
      </trkpt>
      <trkpt lat="44.9286" lon="0.96071">
        <ele>133</ele>
        <time>2019-02-01T22:17:28.000Z</time>
      </trkpt>
      <trkpt lat="44.92803" lon="0.96079">
        <ele>131</ele>
        <time>2019-02-01T22:18:28.000Z</time>
      </trkpt>
      <trkpt lat="44.9279" lon="0.96106">
        <ele>134</ele>
        <time>2019-02-01T22:19:28.000Z</time>
      </trkpt>
      <trkpt lat="44.92787" lon="0.96087">
        <ele>131</ele>
        <time>2019-02-01T22:20:28.000Z</time>
      </trkpt>
      <trkpt lat="44.92752" lon="0.96068">
        <ele>131</ele>
        <time>2019-02-01T22:21:28.000Z</time>
      </trkpt>
      <trkpt lat="44.92674" lon="0.96066">
        <ele>126</ele>
        <time>2019-02-01T22:22:28.000Z</time>
      </trkpt>
      <trkpt lat="44.92585" lon="0.96072">
        <ele>117</ele>
        <time>2019-02-01T22:23:28.000Z</time>
      </trkpt>
      <trkpt lat="44.92479" lon="0.96029">
        <ele>104</ele>
        <time>2019-02-01T22:24:28.000Z</time>
      </trkpt>
      <trkpt lat="44.92381" lon="0.96003">
        <ele>88</ele>
        <time>2019-02-01T22:25:28.000Z</time>
      </trkpt>
      <trkpt lat="44.92292" lon="0.96074">
        <ele>86</ele>
        <time>2019-02-01T22:26:28.000Z</time>
      </trkpt>
      <trkpt lat="44.92181" lon="0.96019">
        <ele>77</ele>
        <time>2019-02-01T22:27:28.000Z</time>
      </trkpt>
      <trkpt lat="44.92087" lon="0.96099">
        <ele>75</ele>
        <time>2019-02-01T22:28:28.000Z</time>
      </trkpt>
      <trkpt lat="44.92043" lon="0.96216">
        <ele>71</ele>
        <time>2019-02-01T22:29:28.000Z</time>
      </trkpt>
      <trkpt lat="44.91985" lon="0.96143">
        <ele>64</ele>
        <time>2019-02-01T22:30:28.000Z</time>
      </trkpt>
      <trkpt lat="44.91955" lon="0.96103">
        <ele>64</ele>
        <time>2019-02-01T22:31:28.000Z</time>
      </trkpt>
      <trkpt lat="44.9187" lon="0.96177">
        <ele>61</ele>
        <time>2019-02-01T22:32:28.000Z</time>
      </trkpt>
      <trkpt lat="44.91836" lon="0.96228">
        <ele>62</ele>
        <time>2019-02-01T22:33:28.000Z</time>
      </trkpt>
      <trkpt lat="44.91766" lon="0.96301">
        <ele>60</ele>
        <time>2019-02-01T22:34:28.000Z</time>
      </trkpt>
      <trkpt lat="44.91718" lon="0.9635">
        <ele>59</ele>
        <time>2019-02-01T22:35:28.000Z</time>
      </trkpt>
      <trkpt lat="44.91708" lon="0.96438">
        <ele>58</ele>
        <time>2019-02-01T22:36:28.000Z</time>
      </trkpt>
      <trkpt lat="44.91756" lon="0.96518">
        <ele>58</ele>
        <time>2019-02-01T22:37:28.000Z</time>
      </trkpt>
      <trkpt lat="44.91801" lon="0.96594">
        <ele>59</ele>
        <time>2019-02-01T22:38:28.000Z</time>
      </trkpt>
      <trkpt lat="44.91848" lon="0.96673">
        <ele>59</ele>
        <time>2019-02-01T22:39:28.000Z</time>
      </trkpt>
      <trkpt lat="44.91894" lon="0.96748">
        <ele>59</ele>
        <time>2019-02-01T22:40:28.000Z</time>
      </trkpt>
      <trkpt lat="44.91945" lon="0.96834">
        <ele>58</ele>
        <time>2019-02-01T22:41:28.000Z</time>
      </trkpt>
      <trkpt lat="44.91993" lon="0.96912">
        <ele>58</ele>
        <time>2019-02-01T22:42:28.000Z</time>
      </trkpt>
      <trkpt lat="44.92039" lon="0.96991">
        <ele>57</ele>
        <time>2019-02-01T22:43:28.000Z</time>
      </trkpt>
      <trkpt lat="44.92089" lon="0.97072">
        <ele>58</ele>
        <time>2019-02-01T22:44:28.000Z</time>
      </trkpt>
      <trkpt lat="44.92137" lon="0.97154">
        <ele>59</ele>
        <time>2019-02-01T22:45:28.000Z</time>
      </trkpt>
      <trkpt lat="44.9217" lon="0.97208">
        <ele>59</ele>
        <time>2019-02-01T22:46:28.000Z</time>
      </trkpt>
      <trkpt lat="44.92197" lon="0.97263">
        <ele>59</ele>
        <time>2019-02-01T22:47:28.000Z</time>
      </trkpt>
      <trkpt lat="44.92301" lon="0.97422">
        <ele>60</ele>
        <time>2019-02-01T22:48:28.000Z</time>
      </trkpt>
      <trkpt lat="44.92358" lon="0.97528">
        <ele>64</ele>
        <time>2019-02-01T22:49:28.000Z</time>
      </trkpt>
      <trkpt lat="44.92415" lon="0.97624">
        <ele>67</ele>
        <time>2019-02-01T22:50:28.000Z</time>
      </trkpt>
      <trkpt lat="44.92438" lon="0.97688">
        <ele>65</ele>
        <time>2019-02-01T22:51:28.000Z</time>
      </trkpt>
      <trkpt lat="44.92486" lon="0.97786">
        <ele>65</ele>
        <time>2019-02-01T22:52:28.000Z</time>
      </trkpt>
      <trkpt lat="44.92539" lon="0.97885">
        <ele>72</ele>
        <time>2019-02-01T22:53:28.000Z</time>
      </trkpt>
      <trkpt lat="44.92587" lon="0.97985">
        <ele>72</ele>
        <time>2019-02-01T22:54:28.000Z</time>
      </trkpt>
      <trkpt lat="44.92628" lon="0.98079">
        <ele>73</ele>
        <time>2019-02-01T22:55:28.000Z</time>
      </trkpt>
      <trkpt lat="44.92683" lon="0.98178">
        <ele>75</ele>
        <time>2019-02-01T22:56:28.000Z</time>
      </trkpt>
      <trkpt lat="44.92711" lon="0.98288">
        <ele>68</ele>
        <time>2019-02-01T22:57:28.000Z</time>
      </trkpt>
      <trkpt lat="44.92729" lon="0.98411">
        <ele>62</ele>
        <time>2019-02-01T22:58:28.000Z</time>
      </trkpt>
      <trkpt lat="44.92736" lon="0.98536">
        <ele>60</ele>
        <time>2019-02-01T22:59:28.000Z</time>
      </trkpt>
      <trkpt lat="44.92751" lon="0.98666">
        <ele>58</ele>
        <time>2019-02-01T23:00:28.000Z</time>
      </trkpt>
      <trkpt lat="44.92756" lon="0.98791">
        <ele>60</ele>
        <time>2019-02-01T23:01:28.000Z</time>
      </trkpt>
      <trkpt lat="44.92772" lon="0.98918">
        <ele>60</ele>
        <time>2019-02-01T23:02:28.000Z</time>
      </trkpt>
      <trkpt lat="44.92786" lon="0.99042">
        <ele>59</ele>
        <time>2019-02-01T23:03:28.000Z</time>
      </trkpt>
      <trkpt lat="44.92797" lon="0.99162">
        <ele>59</ele>
        <time>2019-02-01T23:04:28.000Z</time>
      </trkpt>
      <trkpt lat="44.92802" lon="0.99285">
        <ele>58</ele>
        <time>2019-02-01T23:05:28.000Z</time>
      </trkpt>
      <trkpt lat="44.92818" lon="0.99408">
        <ele>59</ele>
        <time>2019-02-01T23:06:28.000Z</time>
      </trkpt>
      <trkpt lat="44.92835" lon="0.99531">
        <ele>59</ele>
        <time>2019-02-01T23:07:28.000Z</time>
      </trkpt>
      <trkpt lat="44.92854" lon="0.99623">
        <ele>59</ele>
        <time>2019-02-01T23:08:28.000Z</time>
      </trkpt>
      <trkpt lat="44.92892" lon="0.99836">
        <ele>59</ele>
        <time>2019-02-01T23:09:28.000Z</time>
      </trkpt>
      <trkpt lat="44.92894" lon="0.99966">
        <ele>60</ele>
        <time>2019-02-01T23:10:28.000Z</time>
      </trkpt>
      <trkpt lat="44.92902" lon="1.0008">
        <ele>61</ele>
        <time>2019-02-01T23:11:28.000Z</time>
      </trkpt>
      <trkpt lat="44.92914" lon="1.00197">
        <ele>60</ele>
        <time>2019-02-01T23:12:28.000Z</time>
      </trkpt>
      <trkpt lat="44.92941" lon="1.00249">
        <ele>63</ele>
        <time>2019-02-01T23:13:28.000Z</time>
      </trkpt>
      <trkpt lat="44.9298" lon="1.00266">
        <ele>67</ele>
        <time>2019-02-01T23:14:28.000Z</time>
      </trkpt>
      <trkpt lat="44.92976" lon="1.00338">
        <ele>68</ele>
        <time>2019-02-01T23:15:28.000Z</time>
      </trkpt>
      <trkpt lat="44.92978" lon="1.00419">
        <ele>68</ele>
        <time>2019-02-01T23:16:28.000Z</time>
      </trkpt>
      <trkpt lat="44.93006" lon="1.00493">
        <ele>71</ele>
        <time>2019-02-01T23:17:28.000Z</time>
      </trkpt>
      <trkpt lat="44.93029" lon="1.00551">
        <ele>73</ele>
        <time>2019-02-01T23:18:28.000Z</time>
      </trkpt>
      <trkpt lat="44.93043" lon="1.00588">
        <ele>75</ele>
        <time>2019-02-01T23:19:28.000Z</time>
      </trkpt>
      <trkpt lat="44.93067" lon="1.00625">
        <ele>77</ele>
        <time>2019-02-01T23:20:28.000Z</time>
      </trkpt>
      <trkpt lat="44.93112" lon="1.00691">
        <ele>79</ele>
        <time>2019-02-01T23:21:28.000Z</time>
      </trkpt>
      <trkpt lat="44.93149" lon="1.00691">
        <ele>84</ele>
        <time>2019-02-01T23:22:28.000Z</time>
      </trkpt>
      <trkpt lat="44.93179" lon="1.0075">
        <ele>81</ele>
        <time>2019-02-01T23:23:28.000Z</time>
      </trkpt>
      <trkpt lat="44.93225" lon="1.00784">
        <ele>82</ele>
        <time>2019-02-01T23:24:28.000Z</time>
      </trkpt>
      <trkpt lat="44.93291" lon="1.00804">
        <ele>78</ele>
        <time>2019-02-01T23:25:28.000Z</time>
      </trkpt>
      <trkpt lat="44.93372" lon="1.00784">
        <ele>80</ele>
        <time>2019-02-01T23:26:28.000Z</time>
      </trkpt>
      <trkpt lat="44.93494" lon="1.00752">
        <ele>80</ele>
        <time>2019-02-01T23:27:28.000Z</time>
      </trkpt>
      <trkpt lat="44.93601" lon="1.0067">
        <ele>82</ele>
        <time>2019-02-01T23:28:28.000Z</time>
      </trkpt>
      <trkpt lat="44.93681" lon="1.00589">
        <ele>88</ele>
        <time>2019-02-01T23:29:28.000Z</time>
      </trkpt>
      <trkpt lat="44.93779" lon="1.00506">
        <ele>76</ele>
        <time>2019-02-01T23:30:28.000Z</time>
      </trkpt>
      <trkpt lat="44.93843" lon="1.0046">
        <ele>70</ele>
        <time>2019-02-01T23:31:28.000Z</time>
      </trkpt>
      <trkpt lat="44.93886" lon="1.00495">
        <ele>62</ele>
        <time>2019-02-01T23:32:28.000Z</time>
      </trkpt>
      <trkpt lat="44.93915" lon="1.00571">
        <ele>61</ele>
        <time>2019-02-01T23:33:28.000Z</time>
      </trkpt>
      <trkpt lat="44.93946" lon="1.00618">
        <ele>61</ele>
        <time>2019-02-01T23:34:28.000Z</time>
      </trkpt>
      <trkpt lat="44.93981" lon="1.00653">
        <ele>61</ele>
        <time>2019-02-01T23:35:28.000Z</time>
      </trkpt>
      <trkpt lat="44.9403" lon="1.00694">
        <ele>62</ele>
        <time>2019-02-01T23:36:28.000Z</time>
      </trkpt>
      <trkpt lat="44.94077" lon="1.00776">
        <ele>67</ele>
        <time>2019-02-01T23:37:28.000Z</time>
      </trkpt>
      <trkpt lat="44.94055" lon="1.00842">
        <ele>68</ele>
        <time>2019-02-01T23:38:28.000Z</time>
      </trkpt>
      <trkpt lat="44.94003" lon="1.00913">
        <ele>67</ele>
        <time>2019-02-01T23:39:28.000Z</time>
      </trkpt>
      <trkpt lat="44.93984" lon="1.00972">
        <ele>70</ele>
        <time>2019-02-01T23:40:28.000Z</time>
      </trkpt>
      <trkpt lat="44.93997" lon="1.00987">
        <ele>72</ele>
        <time>2019-02-01T23:41:28.000Z</time>
      </trkpt>
      <trkpt lat="44.94008" lon="1.00969">
        <ele>73</ele>
        <time>2019-02-01T23:42:28.000Z</time>
      </trkpt>
      <trkpt lat="44.94022" lon="1.00977">
        <ele>77</ele>
        <time>2019-02-01T23:43:28.000Z</time>
      </trkpt>
      <trkpt lat="44.94033" lon="1.00965">
        <ele>79</ele>
        <time>2019-02-01T23:44:28.000Z</time>
      </trkpt>
      <trkpt lat="44.94041" lon="1.00973">
        <ele>82</ele>
        <time>2019-02-01T23:45:28.000Z</time>
      </trkpt>
      <trkpt lat="44.9402" lon="1.00975">
        <ele>76</ele>
        <time>2019-02-01T23:46:28.000Z</time>
      </trkpt>
      <trkpt lat="44.94007" lon="1.00989">
        <ele>74</ele>
        <time>2019-02-01T23:47:28.000Z</time>
      </trkpt>
      <trkpt lat="44.93998" lon="1.00982">
        <ele>72</ele>
        <time>2019-02-01T23:48:28.000Z</time>
      </trkpt>
      <trkpt lat="44.93985" lon="1.00991">
        <ele>71</ele>
        <time>2019-02-01T23:49:28.000Z</time>
      </trkpt>
      <trkpt lat="44.93996" lon="1.0099">
        <ele>72</ele>
        <time>2019-02-01T23:50:28.000Z</time>
      </trkpt>
      <trkpt lat="44.93987" lon="1.00998">
        <ele>71</ele>
        <time>2019-02-01T23:51:28.000Z</time>
      </trkpt>
      <trkpt lat="44.9393" lon="1.01047">
        <ele>72</ele>
        <time>2019-02-01T23:52:28.000Z</time>
      </trkpt>
      <trkpt lat="44.93881" lon="1.01095">
        <ele>75</ele>
        <time>2019-02-01T23:53:28.000Z</time>
      </trkpt>
      <trkpt lat="44.93828" lon="1.01144">
        <ele>80</ele>
        <time>2019-02-01T23:54:28.000Z</time>
      </trkpt>
      <trkpt lat="44.93779" lon="1.01184">
        <ele>81</ele>
        <time>2019-02-01T23:55:28.000Z</time>
      </trkpt>
      <trkpt lat="44.93723" lon="1.01211">
        <ele>79</ele>
        <time>2019-02-01T23:56:28.000Z</time>
      </trkpt>
      <trkpt lat="44.93677" lon="1.01257">
        <ele>78</ele>
        <time>2019-02-01T23:57:28.000Z</time>
      </trkpt>
      <trkpt lat="44.93623" lon="1.01295">
        <ele>75</ele>
        <time>2019-02-01T23:58:28.000Z</time>
      </trkpt>
      <trkpt lat="44.93616" lon="1.01304">
        <ele>75</ele>
        <time>2019-02-01T23:59:28.000Z</time>
      </trkpt>
      <trkpt lat="44.93606" lon="1.01318">
        <ele>74</ele>
        <time>2019-02-02T00:00:28.000Z</time>
      </trkpt>
      <trkpt lat="44.93589" lon="1.01333">
        <ele>72</ele>
        <time>2019-02-02T00:01:28.000Z</time>
      </trkpt>
      <trkpt lat="44.93566" lon="1.01348">
        <ele>69</ele>
        <time>2019-02-02T00:02:28.000Z</time>
      </trkpt>
      <trkpt lat="44.93538" lon="1.0137">
        <ele>68</ele>
        <time>2019-02-02T00:03:28.000Z</time>
      </trkpt>
      <trkpt lat="44.93516" lon="1.01391">
        <ele>67</ele>
        <time>2019-02-02T00:04:28.000Z</time>
      </trkpt>
      <trkpt lat="44.93485" lon="1.01463">
        <ele>67</ele>
        <time>2019-02-02T00:05:28.000Z</time>
      </trkpt>
      <trkpt lat="44.93473" lon="1.015">
        <ele>68</ele>
        <time>2019-02-02T00:06:28.000Z</time>
      </trkpt>
      <trkpt lat="44.93465" lon="1.01532">
        <ele>69</ele>
        <time>2019-02-02T00:07:28.000Z</time>
      </trkpt>
      <trkpt lat="44.93459" lon="1.01561">
        <ele>71</ele>
        <time>2019-02-02T00:08:28.000Z</time>
      </trkpt>
      <trkpt lat="44.93448" lon="1.01589">
        <ele>73</ele>
        <time>2019-02-02T00:09:28.000Z</time>
      </trkpt>
      <trkpt lat="44.93454" lon="1.0162">
        <ele>74</ele>
        <time>2019-02-02T00:10:28.000Z</time>
      </trkpt>
      <trkpt lat="44.93459" lon="1.01651">
        <ele>74</ele>
        <time>2019-02-02T00:11:28.000Z</time>
      </trkpt>
      <trkpt lat="44.93466" lon="1.0169">
        <ele>75</ele>
        <time>2019-02-02T00:12:28.000Z</time>
      </trkpt>
      <trkpt lat="44.93476" lon="1.01728">
        <ele>74</ele>
        <time>2019-02-02T00:13:28.000Z</time>
      </trkpt>
      <trkpt lat="44.93492" lon="1.01763">
        <ele>72</ele>
        <time>2019-02-02T00:14:28.000Z</time>
      </trkpt>
      <trkpt lat="44.93502" lon="1.01795">
        <ele>71</ele>
        <time>2019-02-02T00:15:28.000Z</time>
      </trkpt>
      <trkpt lat="44.93516" lon="1.01833">
        <ele>71</ele>
        <time>2019-02-02T00:16:28.000Z</time>
      </trkpt>
      <trkpt lat="44.93525" lon="1.01868">
        <ele>72</ele>
        <time>2019-02-02T00:17:28.000Z</time>
      </trkpt>
      <trkpt lat="44.93541" lon="1.01905">
        <ele>71</ele>
        <time>2019-02-02T00:18:28.000Z</time>
      </trkpt>
      <trkpt lat="44.93556" lon="1.01938">
        <ele>72</ele>
        <time>2019-02-02T00:19:28.000Z</time>
      </trkpt>
      <trkpt lat="44.93566" lon="1.01971">
        <ele>72</ele>
        <time>2019-02-02T00:20:28.000Z</time>
      </trkpt>
      <trkpt lat="44.9358" lon="1.02008">
        <ele>72</ele>
        <time>2019-02-02T00:21:28.000Z</time>
      </trkpt>
      <trkpt lat="44.93591" lon="1.02037">
        <ele>72</ele>
        <time>2019-02-02T00:22:28.000Z</time>
      </trkpt>
      <trkpt lat="44.93599" lon="1.02068">
        <ele>72</ele>
        <time>2019-02-02T00:23:28.000Z</time>
      </trkpt>
      <trkpt lat="44.93606" lon="1.02108">
        <ele>73</ele>
        <time>2019-02-02T00:24:28.000Z</time>
      </trkpt>
      <trkpt lat="44.93607" lon="1.02138">
        <ele>73</ele>
        <time>2019-02-02T00:25:28.000Z</time>
      </trkpt>
      <trkpt lat="44.93612" lon="1.02169">
        <ele>73</ele>
        <time>2019-02-02T00:26:28.000Z</time>
      </trkpt>
      <trkpt lat="44.93617" lon="1.02201">
        <ele>73</ele>
        <time>2019-02-02T00:27:28.000Z</time>
      </trkpt>
      <trkpt lat="44.93624" lon="1.02237">
        <ele>74</ele>
        <time>2019-02-02T00:28:28.000Z</time>
      </trkpt>
      <trkpt lat="44.93628" lon="1.02267">
        <ele>75</ele>
        <time>2019-02-02T00:29:28.000Z</time>
      </trkpt>
      <trkpt lat="44.93635" lon="1.02295">
        <ele>76</ele>
        <time>2019-02-02T00:30:28.000Z</time>
      </trkpt>
      <trkpt lat="44.93641" lon="1.0233">
        <ele>78</ele>
        <time>2019-02-02T00:31:28.000Z</time>
      </trkpt>
      <trkpt lat="44.93659" lon="1.02423">
        <ele>82</ele>
        <time>2019-02-02T00:32:28.000Z</time>
      </trkpt>
      <trkpt lat="44.93664" lon="1.02456">
        <ele>82</ele>
        <time>2019-02-02T00:33:28.000Z</time>
      </trkpt>
      <trkpt lat="44.93681" lon="1.02537">
        <ele>81</ele>
        <time>2019-02-02T00:34:28.000Z</time>
      </trkpt>
      <trkpt lat="44.93686" lon="1.02567">
        <ele>79</ele>
        <time>2019-02-02T00:35:28.000Z</time>
      </trkpt>
      <trkpt lat="44.93693" lon="1.02607">
        <ele>81</ele>
        <time>2019-02-02T00:36:28.000Z</time>
      </trkpt>
      <trkpt lat="44.93702" lon="1.02641">
        <ele>84</ele>
        <time>2019-02-02T00:37:28.000Z</time>
      </trkpt>
      <trkpt lat="44.93708" lon="1.02663">
        <ele>85</ele>
        <time>2019-02-02T00:38:28.000Z</time>
      </trkpt>
      <trkpt lat="44.93714" lon="1.02682">
        <ele>87</ele>
        <time>2019-02-02T00:39:28.000Z</time>
      </trkpt>
      <trkpt lat="44.93718" lon="1.02695">
        <ele>88</ele>
        <time>2019-02-02T00:40:28.000Z</time>
      </trkpt>
      <trkpt lat="44.93715" lon="1.02659">
        <ele>83</ele>
        <time>2019-02-02T00:41:28.000Z</time>
      </trkpt>
      <trkpt lat="44.9369" lon="1.02643">
        <ele>85</ele>
        <time>2019-02-02T00:42:28.000Z</time>
      </trkpt>
      <trkpt lat="44.9371" lon="1.02677">
        <ele>87</ele>
        <time>2019-02-02T00:43:28.000Z</time>
      </trkpt>
      <trkpt lat="44.93705" lon="1.02666">
        <ele>86</ele>
        <time>2019-02-02T00:44:28.000Z</time>
      </trkpt>
      <trkpt lat="44.93713" lon="1.02688">
        <ele>88</ele>
        <time>2019-02-02T00:45:28.000Z</time>
      </trkpt>
      <trkpt lat="44.93762" lon="1.02789">
        <ele>92</ele>
        <time>2019-02-02T00:46:28.000Z</time>
      </trkpt>
      <trkpt lat="44.93824" lon="1.02872">
        <ele>92</ele>
        <time>2019-02-02T00:47:28.000Z</time>
      </trkpt>
      <trkpt lat="44.9389" lon="1.02922">
        <ele>93</ele>
        <time>2019-02-02T00:48:28.000Z</time>
      </trkpt>
      <trkpt lat="44.93964" lon="1.02972">
        <ele>98</ele>
        <time>2019-02-02T00:49:28.000Z</time>
      </trkpt>
      <trkpt lat="44.94061" lon="1.03027">
        <ele>90</ele>
        <time>2019-02-02T00:50:28.000Z</time>
      </trkpt>
      <trkpt lat="44.94125" lon="1.03109">
        <ele>89</ele>
        <time>2019-02-02T00:51:28.000Z</time>
      </trkpt>
      <trkpt lat="44.94195" lon="1.0318">
        <ele>89</ele>
        <time>2019-02-02T00:52:28.000Z</time>
      </trkpt>
      <trkpt lat="44.94257" lon="1.0333">
        <ele>98</ele>
        <time>2019-02-02T00:53:28.000Z</time>
      </trkpt>
      <trkpt lat="44.94296" lon="1.0352">
        <ele>102</ele>
        <time>2019-02-02T00:54:28.000Z</time>
      </trkpt>
      <trkpt lat="44.94325" lon="1.03693">
        <ele>93</ele>
        <time>2019-02-02T00:55:28.000Z</time>
      </trkpt>
      <trkpt lat="44.94352" lon="1.03847">
        <ele>96</ele>
        <time>2019-02-02T00:56:28.000Z</time>
      </trkpt>
      <trkpt lat="44.94398" lon="1.03986">
        <ele>95</ele>
        <time>2019-02-02T00:57:28.000Z</time>
      </trkpt>
      <trkpt lat="44.94428" lon="1.04158">
        <ele>95</ele>
        <time>2019-02-02T00:58:28.000Z</time>
      </trkpt>
      <trkpt lat="44.94417" lon="1.04213">
        <ele>94</ele>
        <time>2019-02-02T00:59:28.000Z</time>
      </trkpt>
      <trkpt lat="44.94374" lon="1.04196">
        <ele>107</ele>
        <time>2019-02-02T01:00:28.000Z</time>
      </trkpt>
      <trkpt lat="44.94356" lon="1.04203">
        <ele>111</ele>
        <time>2019-02-02T01:01:28.000Z</time>
      </trkpt>
      <trkpt lat="44.94361" lon="1.04187">
        <ele>112</ele>
        <time>2019-02-02T01:02:28.000Z</time>
      </trkpt>
      <trkpt lat="44.94357" lon="1.042">
        <ele>111</ele>
        <time>2019-02-02T01:03:28.000Z</time>
      </trkpt>
      <trkpt lat="44.94358" lon="1.04213">
        <ele>109</ele>
        <time>2019-02-02T01:04:28.000Z</time>
      </trkpt>
      <trkpt lat="44.94357" lon="1.04196">
        <ele>112</ele>
        <time>2019-02-02T01:05:28.000Z</time>
      </trkpt>
      <trkpt lat="44.94357" lon="1.04226">
        <ele>107</ele>
        <time>2019-02-02T01:06:28.000Z</time>
      </trkpt>
      <trkpt lat="44.94362" lon="1.04239">
        <ele>104</ele>
        <time>2019-02-02T01:07:28.000Z</time>
      </trkpt>
      <trkpt lat="44.94368" lon="1.04264">
        <ele>103</ele>
        <time>2019-02-02T01:08:28.000Z</time>
      </trkpt>
      <trkpt lat="44.94357" lon="1.04229">
        <ele>107</ele>
        <time>2019-02-02T01:09:28.000Z</time>
      </trkpt>
      <trkpt lat="44.94354" lon="1.04213">
        <ele>110</ele>
        <time>2019-02-02T01:10:28.000Z</time>
      </trkpt>
      <trkpt lat="44.94359" lon="1.04179">
        <ele>114</ele>
        <time>2019-02-02T01:11:28.000Z</time>
      </trkpt>
      <trkpt lat="44.94373" lon="1.04239">
        <ele>102</ele>
        <time>2019-02-02T01:12:28.000Z</time>
      </trkpt>
      <trkpt lat="44.94322" lon="1.0408">
        <ele>132</ele>
        <time>2019-02-02T01:13:28.000Z</time>
      </trkpt>
      <trkpt lat="44.9433" lon="1.04121">
        <ele>128</ele>
        <time>2019-02-02T01:14:28.000Z</time>
      </trkpt>
      <trkpt lat="44.94338" lon="1.04149">
        <ele>124</ele>
        <time>2019-02-02T01:15:28.000Z</time>
      </trkpt>
      <trkpt lat="44.94342" lon="1.04163">
        <ele>121</ele>
        <time>2019-02-02T01:16:28.000Z</time>
      </trkpt>
      <trkpt lat="44.94343" lon="1.04176">
        <ele>119</ele>
        <time>2019-02-02T01:17:28.000Z</time>
      </trkpt>
      <trkpt lat="44.94358" lon="1.04233">
        <ele>106</ele>
        <time>2019-02-02T01:18:28.000Z</time>
      </trkpt>
      <trkpt lat="44.94363" lon="1.04255">
        <ele>103</ele>
        <time>2019-02-02T01:19:28.000Z</time>
      </trkpt>
      <trkpt lat="44.94368" lon="1.04243">
        <ele>102</ele>
        <time>2019-02-02T01:20:28.000Z</time>
      </trkpt>
      <trkpt lat="44.94359" lon="1.04221">
        <ele>107</ele>
        <time>2019-02-02T01:21:28.000Z</time>
      </trkpt>
      <trkpt lat="44.94366" lon="1.0424">
        <ele>103</ele>
        <time>2019-02-02T01:22:28.000Z</time>
      </trkpt>
      <trkpt lat="44.94361" lon="1.04219">
        <ele>107</ele>
        <time>2019-02-02T01:23:28.000Z</time>
      </trkpt>
      <trkpt lat="44.94373" lon="1.04195">
        <ele>107</ele>
        <time>2019-02-02T01:24:28.000Z</time>
      </trkpt>
      <trkpt lat="44.94374" lon="1.04214">
        <ele>105</ele>
        <time>2019-02-02T01:25:28.000Z</time>
      </trkpt>
      <trkpt lat="44.94401" lon="1.04249">
        <ele>95</ele>
        <time>2019-02-02T01:26:28.000Z</time>
      </trkpt>
      <trkpt lat="44.94443" lon="1.04203">
        <ele>91</ele>
        <time>2019-02-02T01:27:28.000Z</time>
      </trkpt>
      <trkpt lat="44.94435" lon="1.04121">
        <ele>93</ele>
        <time>2019-02-02T01:28:28.000Z</time>
      </trkpt>
      <trkpt lat="44.94408" lon="1.04018">
        <ele>93</ele>
        <time>2019-02-02T01:29:28.000Z</time>
      </trkpt>
      <trkpt lat="44.94354" lon="1.03774">
        <ele>90</ele>
        <time>2019-02-02T01:30:28.000Z</time>
      </trkpt>
      <trkpt lat="44.94325" lon="1.03635">
        <ele>91</ele>
        <time>2019-02-02T01:31:28.000Z</time>
      </trkpt>
      <trkpt lat="44.94301" lon="1.03505">
        <ele>99</ele>
        <time>2019-02-02T01:32:28.000Z</time>
      </trkpt>
      <trkpt lat="44.94276" lon="1.03382">
        <ele>99</ele>
        <time>2019-02-02T01:33:28.000Z</time>
      </trkpt>
      <trkpt lat="44.94247" lon="1.03269">
        <ele>89</ele>
        <time>2019-02-02T01:34:28.000Z</time>
      </trkpt>
      <trkpt lat="44.94186" lon="1.03167">
        <ele>88</ele>
        <time>2019-02-02T01:35:28.000Z</time>
      </trkpt>
      <trkpt lat="44.94112" lon="1.03075">
        <ele>87</ele>
        <time>2019-02-02T01:36:28.000Z</time>
      </trkpt>
      <trkpt lat="44.94045" lon="1.02995">
        <ele>88</ele>
        <time>2019-02-02T01:37:28.000Z</time>
      </trkpt>
      <trkpt lat="44.93938" lon="1.02937">
        <ele>92</ele>
        <time>2019-02-02T01:38:28.000Z</time>
      </trkpt>
      <trkpt lat="44.9383" lon="1.02866">
        <ele>89</ele>
        <time>2019-02-02T01:39:28.000Z</time>
      </trkpt>
      <trkpt lat="44.93746" lon="1.02745">
        <ele>86</ele>
        <time>2019-02-02T01:40:28.000Z</time>
      </trkpt>
      <trkpt lat="44.93721" lon="1.02634">
        <ele>81</ele>
        <time>2019-02-02T01:41:28.000Z</time>
      </trkpt>
      <trkpt lat="44.93708" lon="1.02653">
        <ele>84</ele>
        <time>2019-02-02T01:42:28.000Z</time>
      </trkpt>
      <trkpt lat="44.93724" lon="1.02654">
        <ele>82</ele>
        <time>2019-02-02T01:43:28.000Z</time>
      </trkpt>
      <trkpt lat="44.93703" lon="1.02675">
        <ele>88</ele>
        <time>2019-02-02T01:44:28.000Z</time>
      </trkpt>
      <trkpt lat="44.93687" lon="1.02686">
        <ele>93</ele>
        <time>2019-02-02T01:45:28.000Z</time>
      </trkpt>
      <trkpt lat="44.93693" lon="1.02671">
        <ele>89</ele>
        <time>2019-02-02T01:46:28.000Z</time>
      </trkpt>
      <trkpt lat="44.93708" lon="1.02664">
        <ele>85</ele>
        <time>2019-02-02T01:47:28.000Z</time>
      </trkpt>
      <trkpt lat="44.93679" lon="1.02684">
        <ele>94</ele>
        <time>2019-02-02T01:48:28.000Z</time>
      </trkpt>
      <trkpt lat="44.93665" lon="1.02666">
        <ele>92</ele>
        <time>2019-02-02T01:49:28.000Z</time>
      </trkpt>
      <trkpt lat="44.93653" lon="1.02672">
        <ele>93</ele>
        <time>2019-02-02T01:50:28.000Z</time>
      </trkpt>
      <trkpt lat="44.9364" lon="1.02695">
        <ele>98</ele>
        <time>2019-02-02T01:51:28.000Z</time>
      </trkpt>
      <trkpt lat="44.93621" lon="1.02712">
        <ele>101</ele>
        <time>2019-02-02T01:52:28.000Z</time>
      </trkpt>
      <trkpt lat="44.93611" lon="1.02712">
        <ele>100</ele>
        <time>2019-02-02T01:53:28.000Z</time>
      </trkpt>
      <trkpt lat="44.93604" lon="1.02749">
        <ele>110</ele>
        <time>2019-02-02T01:54:28.000Z</time>
      </trkpt>
      <trkpt lat="44.93592" lon="1.02754">
        <ele>110</ele>
        <time>2019-02-02T01:55:28.000Z</time>
      </trkpt>
      <trkpt lat="44.93575" lon="1.0278">
        <ele>114</ele>
        <time>2019-02-02T01:56:28.000Z</time>
      </trkpt>
      <trkpt lat="44.93571" lon="1.02799">
        <ele>117</ele>
        <time>2019-02-02T01:57:28.000Z</time>
      </trkpt>
      <trkpt lat="44.93554" lon="1.02817">
        <ele>115</ele>
        <time>2019-02-02T01:58:28.000Z</time>
      </trkpt>
      <trkpt lat="44.93532" lon="1.02823">
        <ele>108</ele>
        <time>2019-02-02T01:59:28.000Z</time>
      </trkpt>
      <trkpt lat="44.9354" lon="1.02861">
        <ele>119</ele>
        <time>2019-02-02T02:00:28.000Z</time>
      </trkpt>
      <trkpt lat="44.93519" lon="1.02867">
        <ele>113</ele>
        <time>2019-02-02T02:01:28.000Z</time>
      </trkpt>
      <trkpt lat="44.9353" lon="1.0287">
        <ele>118</ele>
        <time>2019-02-02T02:02:28.000Z</time>
      </trkpt>
      <trkpt lat="44.93514" lon="1.02872">
        <ele>113</ele>
        <time>2019-02-02T02:03:28.000Z</time>
      </trkpt>
      <trkpt lat="44.93512" lon="1.02856">
        <ele>108</ele>
        <time>2019-02-02T02:04:28.000Z</time>
      </trkpt>
      <trkpt lat="44.93521" lon="1.02892">
        <ele>121</ele>
        <time>2019-02-02T02:05:28.000Z</time>
      </trkpt>
      <trkpt lat="44.93516" lon="1.02864">
        <ele>112</ele>
        <time>2019-02-02T02:06:28.000Z</time>
      </trkpt>
      <trkpt lat="44.93546" lon="1.02848">
        <ele>119</ele>
        <time>2019-02-02T02:07:28.000Z</time>
      </trkpt>
      <trkpt lat="44.93557" lon="1.02843">
        <ele>122</ele>
        <time>2019-02-02T02:08:28.000Z</time>
      </trkpt>
      <trkpt lat="44.93558" lon="1.02823">
        <ele>118</ele>
        <time>2019-02-02T02:09:28.000Z</time>
      </trkpt>
      <trkpt lat="44.93572" lon="1.02805">
        <ele>119</ele>
        <time>2019-02-02T02:10:28.000Z</time>
      </trkpt>
      <trkpt lat="44.93584" lon="1.0278">
        <ele>116</ele>
        <time>2019-02-02T02:11:28.000Z</time>
      </trkpt>
      <trkpt lat="44.93605" lon="1.02746">
        <ele>109</ele>
        <time>2019-02-02T02:12:28.000Z</time>
      </trkpt>
      <trkpt lat="44.93622" lon="1.0274">
        <ele>109</ele>
        <time>2019-02-02T02:13:28.000Z</time>
      </trkpt>
      <trkpt lat="44.93634" lon="1.0271">
        <ele>102</ele>
        <time>2019-02-02T02:14:28.000Z</time>
      </trkpt>
      <trkpt lat="44.93665" lon="1.02688">
        <ele>98</ele>
        <time>2019-02-02T02:15:28.000Z</time>
      </trkpt>
      <trkpt lat="44.9369" lon="1.02677">
        <ele>90</ele>
        <time>2019-02-02T02:16:28.000Z</time>
      </trkpt>
      <trkpt lat="44.93699" lon="1.02673">
        <ele>88</ele>
        <time>2019-02-02T02:17:28.000Z</time>
      </trkpt>
      <trkpt lat="44.93705" lon="1.02656">
        <ele>85</ele>
        <time>2019-02-02T02:18:28.000Z</time>
      </trkpt>
      <trkpt lat="44.93705" lon="1.02642">
        <ele>83</ele>
        <time>2019-02-02T02:19:28.000Z</time>
      </trkpt>
      <trkpt lat="44.93707" lon="1.02629">
        <ele>82</ele>
        <time>2019-02-02T02:20:28.000Z</time>
      </trkpt>
      <trkpt lat="44.93703" lon="1.02609">
        <ele>81</ele>
        <time>2019-02-02T02:21:28.000Z</time>
      </trkpt>
      <trkpt lat="44.93698" lon="1.02586">
        <ele>79</ele>
        <time>2019-02-02T02:22:28.000Z</time>
      </trkpt>
      <trkpt lat="44.93692" lon="1.02563">
        <ele>80</ele>
        <time>2019-02-02T02:23:28.000Z</time>
      </trkpt>
      <trkpt lat="44.9368" lon="1.02511">
        <ele>82</ele>
        <time>2019-02-02T02:24:28.000Z</time>
      </trkpt>
      <trkpt lat="44.93675" lon="1.02483">
        <ele>82</ele>
        <time>2019-02-02T02:25:28.000Z</time>
      </trkpt>
      <trkpt lat="44.93671" lon="1.0246">
        <ele>82</ele>
        <time>2019-02-02T02:26:28.000Z</time>
      </trkpt>
      <trkpt lat="44.93657" lon="1.02376">
        <ele>79</ele>
        <time>2019-02-02T02:27:28.000Z</time>
      </trkpt>
      <trkpt lat="44.93654" lon="1.02353">
        <ele>78</ele>
        <time>2019-02-02T02:28:28.000Z</time>
      </trkpt>
      <trkpt lat="44.93648" lon="1.02326">
        <ele>77</ele>
        <time>2019-02-02T02:29:28.000Z</time>
      </trkpt>
      <trkpt lat="44.93644" lon="1.02304">
        <ele>76</ele>
        <time>2019-02-02T02:30:28.000Z</time>
      </trkpt>
      <trkpt lat="44.9364" lon="1.02288">
        <ele>76</ele>
        <time>2019-02-02T02:31:28.000Z</time>
      </trkpt>
      <trkpt lat="44.93636" lon="1.02264">
        <ele>74</ele>
        <time>2019-02-02T02:32:28.000Z</time>
      </trkpt>
      <trkpt lat="44.93631" lon="1.02245">
        <ele>74</ele>
        <time>2019-02-02T02:33:28.000Z</time>
      </trkpt>
      <trkpt lat="44.93628" lon="1.02224">
        <ele>74</ele>
        <time>2019-02-02T02:34:28.000Z</time>
      </trkpt>
      <trkpt lat="44.93624" lon="1.02204">
        <ele>73</ele>
        <time>2019-02-02T02:35:28.000Z</time>
      </trkpt>
      <trkpt lat="44.93617" lon="1.02177">
        <ele>73</ele>
        <time>2019-02-02T02:36:28.000Z</time>
      </trkpt>
      <trkpt lat="44.93614" lon="1.02154">
        <ele>73</ele>
        <time>2019-02-02T02:37:28.000Z</time>
      </trkpt>
      <trkpt lat="44.93612" lon="1.02124">
        <ele>73</ele>
        <time>2019-02-02T02:38:28.000Z</time>
      </trkpt>
      <trkpt lat="44.93626" lon="1.02107">
        <ele>73</ele>
        <time>2019-02-02T02:39:28.000Z</time>
      </trkpt>
      <trkpt lat="44.9364" lon="1.02109">
        <ele>73</ele>
        <time>2019-02-02T02:40:28.000Z</time>
      </trkpt>
      <trkpt lat="44.93652" lon="1.02102">
        <ele>74</ele>
        <time>2019-02-02T02:41:28.000Z</time>
      </trkpt>
      <trkpt lat="44.93663" lon="1.02098">
        <ele>74</ele>
        <time>2019-02-02T02:42:28.000Z</time>
      </trkpt>
      <trkpt lat="44.93675" lon="1.02094">
        <ele>76</ele>
        <time>2019-02-02T02:43:28.000Z</time>
      </trkpt>
      <trkpt lat="44.93666" lon="1.02089">
        <ele>74</ele>
        <time>2019-02-02T02:44:28.000Z</time>
      </trkpt>
      <trkpt lat="44.93657" lon="1.02094">
        <ele>74</ele>
        <time>2019-02-02T02:45:28.000Z</time>
      </trkpt>
      <trkpt lat="44.93647" lon="1.02096">
        <ele>73</ele>
        <time>2019-02-02T02:46:28.000Z</time>
      </trkpt>
      <trkpt lat="44.93637" lon="1.02095">
        <ele>73</ele>
        <time>2019-02-02T02:47:28.000Z</time>
      </trkpt>
      <trkpt lat="44.93629" lon="1.02087">
        <ele>73</ele>
        <time>2019-02-02T02:48:28.000Z</time>
      </trkpt>
      <trkpt lat="44.93614" lon="1.0207">
        <ele>73</ele>
        <time>2019-02-02T02:49:28.000Z</time>
      </trkpt>
      <trkpt lat="44.93602" lon="1.02046">
        <ele>73</ele>
        <time>2019-02-02T02:50:28.000Z</time>
      </trkpt>
      <trkpt lat="44.9359" lon="1.02013">
        <ele>72</ele>
        <time>2019-02-02T02:51:28.000Z</time>
      </trkpt>
      <trkpt lat="44.93579" lon="1.01984">
        <ele>71</ele>
        <time>2019-02-02T02:52:28.000Z</time>
      </trkpt>
      <trkpt lat="44.93569" lon="1.01956">
        <ele>71</ele>
        <time>2019-02-02T02:53:28.000Z</time>
      </trkpt>
      <trkpt lat="44.93557" lon="1.01926">
        <ele>71</ele>
        <time>2019-02-02T02:54:28.000Z</time>
      </trkpt>
      <trkpt lat="44.93534" lon="1.0186">
        <ele>71</ele>
        <time>2019-02-02T02:55:28.000Z</time>
      </trkpt>
      <trkpt lat="44.93521" lon="1.0183">
        <ele>71</ele>
        <time>2019-02-02T02:56:28.000Z</time>
      </trkpt>
      <trkpt lat="44.93509" lon="1.01799">
        <ele>71</ele>
        <time>2019-02-02T02:57:28.000Z</time>
      </trkpt>
      <trkpt lat="44.9348" lon="1.0172">
        <ele>73</ele>
        <time>2019-02-02T02:58:28.000Z</time>
      </trkpt>
      <trkpt lat="44.93474" lon="1.01686">
        <ele>73</ele>
        <time>2019-02-02T02:59:28.000Z</time>
      </trkpt>
      <trkpt lat="44.93466" lon="1.01652">
        <ele>73</ele>
        <time>2019-02-02T03:00:28.000Z</time>
      </trkpt>
      <trkpt lat="44.93461" lon="1.01604">
        <ele>72</ele>
        <time>2019-02-02T03:01:28.000Z</time>
      </trkpt>
      <trkpt lat="44.93465" lon="1.0156">
        <ele>70</ele>
        <time>2019-02-02T03:02:28.000Z</time>
      </trkpt>
      <trkpt lat="44.93472" lon="1.01524">
        <ele>69</ele>
        <time>2019-02-02T03:03:28.000Z</time>
      </trkpt>
      <trkpt lat="44.93478" lon="1.0149">
        <ele>67</ele>
        <time>2019-02-02T03:04:28.000Z</time>
      </trkpt>
      <trkpt lat="44.9349" lon="1.01448">
        <ele>67</ele>
        <time>2019-02-02T03:05:28.000Z</time>
      </trkpt>
      <trkpt lat="44.93507" lon="1.01416">
        <ele>67</ele>
        <time>2019-02-02T03:06:28.000Z</time>
      </trkpt>
      <trkpt lat="44.93529" lon="1.01391">
        <ele>68</ele>
        <time>2019-02-02T03:07:28.000Z</time>
      </trkpt>
      <trkpt lat="44.93551" lon="1.01368">
        <ele>69</ele>
        <time>2019-02-02T03:08:28.000Z</time>
      </trkpt>
      <trkpt lat="44.93573" lon="1.01348">
        <ele>70</ele>
        <time>2019-02-02T03:09:28.000Z</time>
      </trkpt>
      <trkpt lat="44.93595" lon="1.01333">
        <ele>73</ele>
        <time>2019-02-02T03:10:28.000Z</time>
      </trkpt>
      <trkpt lat="44.93621" lon="1.013">
        <ele>75</ele>
        <time>2019-02-02T03:11:28.000Z</time>
      </trkpt>
      <trkpt lat="44.93612" lon="1.01284">
        <ele>71</ele>
        <time>2019-02-02T03:12:28.000Z</time>
      </trkpt>
      <trkpt lat="44.93612" lon="1.01271">
        <ele>69</ele>
        <time>2019-02-02T03:13:28.000Z</time>
      </trkpt>
      <trkpt lat="44.93609" lon="1.01251">
        <ele>66</ele>
        <time>2019-02-02T03:14:28.000Z</time>
      </trkpt>
      <trkpt lat="44.936" lon="1.01236">
        <ele>64</ele>
        <time>2019-02-02T03:15:28.000Z</time>
      </trkpt>
      <trkpt lat="44.93593" lon="1.01226">
        <ele>63</ele>
        <time>2019-02-02T03:16:28.000Z</time>
      </trkpt>
      <trkpt lat="44.93584" lon="1.0122">
        <ele>62</ele>
        <time>2019-02-02T03:17:28.000Z</time>
      </trkpt>
      <trkpt lat="44.93575" lon="1.01225">
        <ele>62</ele>
        <time>2019-02-02T03:18:28.000Z</time>
      </trkpt>
      <trkpt lat="44.93566" lon="1.01225">
        <ele>62</ele>
        <time>2019-02-02T03:19:28.000Z</time>
      </trkpt>
      <trkpt lat="44.93575" lon="1.01222">
        <ele>62</ele>
        <time>2019-02-02T03:20:28.000Z</time>
      </trkpt>
      <trkpt lat="44.93581" lon="1.01233">
        <ele>62</ele>
        <time>2019-02-02T03:21:28.000Z</time>
      </trkpt>
      <trkpt lat="44.93595" lon="1.01232">
        <ele>63</ele>
        <time>2019-02-02T03:22:28.000Z</time>
      </trkpt>
      <trkpt lat="44.93573" lon="1.01261">
        <ele>63</ele>
        <time>2019-02-02T03:23:28.000Z</time>
      </trkpt>
      <trkpt lat="44.9356" lon="1.01301">
        <ele>66</ele>
        <time>2019-02-02T03:24:28.000Z</time>
      </trkpt>
      <trkpt lat="44.93582" lon="1.01302">
        <ele>67</ele>
        <time>2019-02-02T03:25:28.000Z</time>
      </trkpt>
      <trkpt lat="44.93574" lon="1.01348">
        <ele>70</ele>
        <time>2019-02-02T03:26:28.000Z</time>
      </trkpt>
      <trkpt lat="44.93545" lon="1.01366">
        <ele>69</ele>
        <time>2019-02-02T03:27:28.000Z</time>
      </trkpt>
      <trkpt lat="44.93526" lon="1.01417">
        <ele>69</ele>
        <time>2019-02-02T03:28:28.000Z</time>
      </trkpt>
      <trkpt lat="44.93506" lon="1.01455">
        <ele>67</ele>
        <time>2019-02-02T03:29:28.000Z</time>
      </trkpt>
      <trkpt lat="44.93483" lon="1.01508">
        <ele>68</ele>
        <time>2019-02-02T03:30:28.000Z</time>
      </trkpt>
      <trkpt lat="44.93464" lon="1.01568">
        <ele>71</ele>
        <time>2019-02-02T03:31:28.000Z</time>
      </trkpt>
      <trkpt lat="44.93432" lon="1.01559">
        <ele>73</ele>
        <time>2019-02-02T03:32:28.000Z</time>
      </trkpt>
      <trkpt lat="44.93396" lon="1.01522">
        <ele>71</ele>
        <time>2019-02-02T03:33:28.000Z</time>
      </trkpt>
      <trkpt lat="44.93359" lon="1.0152">
        <ele>71</ele>
        <time>2019-02-02T03:34:28.000Z</time>
      </trkpt>
      <trkpt lat="44.93356" lon="1.01508">
        <ele>70</ele>
        <time>2019-02-02T03:35:28.000Z</time>
      </trkpt>
      <trkpt lat="44.93346" lon="1.015">
        <ele>69</ele>
        <time>2019-02-02T03:36:28.000Z</time>
      </trkpt>
      <trkpt lat="44.9332" lon="1.01487">
        <ele>70</ele>
        <time>2019-02-02T03:37:28.000Z</time>
      </trkpt>
      <trkpt lat="44.93329" lon="1.0149">
        <ele>69</ele>
        <time>2019-02-02T03:38:28.000Z</time>
      </trkpt>
      <trkpt lat="44.93342" lon="1.01501">
        <ele>69</ele>
        <time>2019-02-02T03:39:28.000Z</time>
      </trkpt>
      <trkpt lat="44.93332" lon="1.01509">
        <ele>70</ele>
        <time>2019-02-02T03:40:28.000Z</time>
      </trkpt>
      <trkpt lat="44.93352" lon="1.01509">
        <ele>70</ele>
        <time>2019-02-02T03:41:28.000Z</time>
      </trkpt>
      <trkpt lat="44.93397" lon="1.01533">
        <ele>72</ele>
        <time>2019-02-02T03:42:28.000Z</time>
      </trkpt>
      <trkpt lat="44.93428" lon="1.01576">
        <ele>74</ele>
        <time>2019-02-02T03:43:28.000Z</time>
      </trkpt>
      <trkpt lat="44.93462" lon="1.01664">
        <ele>74</ele>
        <time>2019-02-02T03:44:28.000Z</time>
      </trkpt>
      <trkpt lat="44.93477" lon="1.01726">
        <ele>74</ele>
        <time>2019-02-02T03:45:28.000Z</time>
      </trkpt>
      <trkpt lat="44.93504" lon="1.01809">
        <ele>71</ele>
        <time>2019-02-02T03:46:28.000Z</time>
      </trkpt>
      <trkpt lat="44.93525" lon="1.01824">
        <ele>71</ele>
        <time>2019-02-02T03:47:28.000Z</time>
      </trkpt>
      <trkpt lat="44.93564" lon="1.01816">
        <ele>71</ele>
        <time>2019-02-02T03:48:28.000Z</time>
      </trkpt>
      <trkpt lat="44.93602" lon="1.01817">
        <ele>77</ele>
        <time>2019-02-02T03:49:28.000Z</time>
      </trkpt>
      <trkpt lat="44.93595" lon="1.01803">
        <ele>75</ele>
        <time>2019-02-02T03:50:28.000Z</time>
      </trkpt>
      <trkpt lat="44.93593" lon="1.01832">
        <ele>74</ele>
        <time>2019-02-02T03:51:28.000Z</time>
      </trkpt>
      <trkpt lat="44.93588" lon="1.01815">
        <ele>73</ele>
        <time>2019-02-02T03:52:28.000Z</time>
      </trkpt>
      <trkpt lat="44.93542" lon="1.01819">
        <ele>71</ele>
        <time>2019-02-02T03:53:28.000Z</time>
      </trkpt>
      <trkpt lat="44.9352" lon="1.01842">
        <ele>71</ele>
        <time>2019-02-02T03:54:28.000Z</time>
      </trkpt>
      <trkpt lat="44.93599" lon="1.02058">
        <ele>72</ele>
        <time>2019-02-02T03:55:28.000Z</time>
      </trkpt>
      <trkpt lat="44.93619" lon="1.02153">
        <ele>73</ele>
        <time>2019-02-02T03:56:28.000Z</time>
      </trkpt>
      <trkpt lat="44.93628" lon="1.0222">
        <ele>74</ele>
        <time>2019-02-02T03:57:28.000Z</time>
      </trkpt>
      <trkpt lat="44.9364" lon="1.0231">
        <ele>77</ele>
        <time>2019-02-02T03:58:28.000Z</time>
      </trkpt>
      <trkpt lat="44.93662" lon="1.024">
        <ele>80</ele>
        <time>2019-02-02T03:59:28.000Z</time>
      </trkpt>
      <trkpt lat="44.93673" lon="1.02487">
        <ele>82</ele>
        <time>2019-02-02T04:00:28.000Z</time>
      </trkpt>
      <trkpt lat="44.93699" lon="1.02576">
        <ele>79</ele>
        <time>2019-02-02T04:01:28.000Z</time>
      </trkpt>
      <trkpt lat="44.93719" lon="1.02686">
        <ele>86</ele>
        <time>2019-02-02T04:02:28.000Z</time>
      </trkpt>
      <trkpt lat="44.93749" lon="1.02747">
        <ele>85</ele>
        <time>2019-02-02T04:03:28.000Z</time>
      </trkpt>
      <trkpt lat="44.9379" lon="1.02817">
        <ele>91</ele>
        <time>2019-02-02T04:04:28.000Z</time>
      </trkpt>
      <trkpt lat="44.93823" lon="1.02876">
        <ele>94</ele>
        <time>2019-02-02T04:05:28.000Z</time>
      </trkpt>
      <trkpt lat="44.93866" lon="1.0291">
        <ele>94</ele>
        <time>2019-02-02T04:06:28.000Z</time>
      </trkpt>
      <trkpt lat="44.9392" lon="1.02943">
        <ele>95</ele>
        <time>2019-02-02T04:07:28.000Z</time>
      </trkpt>
      <trkpt lat="44.9397" lon="1.02968">
        <ele>96</ele>
        <time>2019-02-02T04:08:28.000Z</time>
      </trkpt>
      <trkpt lat="44.9403" lon="1.02995">
        <ele>91</ele>
        <time>2019-02-02T04:09:28.000Z</time>
      </trkpt>
      <trkpt lat="44.94079" lon="1.03047">
        <ele>88</ele>
        <time>2019-02-02T04:10:28.000Z</time>
      </trkpt>
      <trkpt lat="44.9414" lon="1.03111">
        <ele>87</ele>
        <time>2019-02-02T04:11:28.000Z</time>
      </trkpt>
      <trkpt lat="44.94205" lon="1.03206">
        <ele>91</ele>
        <time>2019-02-02T04:12:28.000Z</time>
      </trkpt>
      <trkpt lat="44.94244" lon="1.03301">
        <ele>96</ele>
        <time>2019-02-02T04:13:28.000Z</time>
      </trkpt>
      <trkpt lat="44.94274" lon="1.03422">
        <ele>104</ele>
        <time>2019-02-02T04:14:28.000Z</time>
      </trkpt>
      <trkpt lat="44.94305" lon="1.03558">
        <ele>100</ele>
        <time>2019-02-02T04:15:28.000Z</time>
      </trkpt>
      <trkpt lat="44.94329" lon="1.03702">
        <ele>91</ele>
        <time>2019-02-02T04:16:28.000Z</time>
      </trkpt>
      <trkpt lat="44.94355" lon="1.03837">
        <ele>94</ele>
        <time>2019-02-02T04:17:28.000Z</time>
      </trkpt>
      <trkpt lat="44.94396" lon="1.03971">
        <ele>95</ele>
        <time>2019-02-02T04:18:28.000Z</time>
      </trkpt>
      <trkpt lat="44.94482" lon="1.04295">
        <ele>90</ele>
        <time>2019-02-02T04:19:28.000Z</time>
      </trkpt>
      <trkpt lat="44.94539" lon="1.04398">
        <ele>92</ele>
        <time>2019-02-02T04:20:28.000Z</time>
      </trkpt>
      <trkpt lat="44.94595" lon="1.04482">
        <ele>89</ele>
        <time>2019-02-02T04:21:28.000Z</time>
      </trkpt>
      <trkpt lat="44.94596" lon="1.04607">
        <ele>98</ele>
        <time>2019-02-02T04:22:28.000Z</time>
      </trkpt>
      <trkpt lat="44.94572" lon="1.04719">
        <ele>101</ele>
        <time>2019-02-02T04:23:28.000Z</time>
      </trkpt>
      <trkpt lat="44.94511" lon="1.04829">
        <ele>115</ele>
        <time>2019-02-02T04:24:28.000Z</time>
      </trkpt>
      <trkpt lat="44.94513" lon="1.04934">
        <ele>103</ele>
        <time>2019-02-02T04:25:28.000Z</time>
      </trkpt>
      <trkpt lat="44.94472" lon="1.05044">
        <ele>110</ele>
        <time>2019-02-02T04:26:28.000Z</time>
      </trkpt>
      <trkpt lat="44.94481" lon="1.05157">
        <ele>100</ele>
        <time>2019-02-02T04:27:28.000Z</time>
      </trkpt>
      <trkpt lat="44.94495" lon="1.05315">
        <ele>92</ele>
        <time>2019-02-02T04:28:28.000Z</time>
      </trkpt>
      <trkpt lat="44.94506" lon="1.05392">
        <ele>92</ele>
        <time>2019-02-02T04:29:28.000Z</time>
      </trkpt>
      <trkpt lat="44.94503" lon="1.05479">
        <ele>94</ele>
        <time>2019-02-02T04:30:28.000Z</time>
      </trkpt>
      <trkpt lat="44.9447" lon="1.05588">
        <ele>105</ele>
        <time>2019-02-02T04:31:28.000Z</time>
      </trkpt>
      <trkpt lat="44.94455" lon="1.05646">
        <ele>103</ele>
        <time>2019-02-02T04:32:28.000Z</time>
      </trkpt>
      <trkpt lat="44.945" lon="1.0575">
        <ele>88</ele>
        <time>2019-02-02T04:33:28.000Z</time>
      </trkpt>
      <trkpt lat="44.94538" lon="1.05841">
        <ele>94</ele>
        <time>2019-02-02T04:34:28.000Z</time>
      </trkpt>
      <trkpt lat="44.94584" lon="1.05939">
        <ele>103</ele>
        <time>2019-02-02T04:35:28.000Z</time>
      </trkpt>
      <trkpt lat="44.94549" lon="1.06066">
        <ele>120</ele>
        <time>2019-02-02T04:36:28.000Z</time>
      </trkpt>
      <trkpt lat="44.94554" lon="1.06204">
        <ele>107</ele>
        <time>2019-02-02T04:37:28.000Z</time>
      </trkpt>
      <trkpt lat="44.94549" lon="1.06324">
        <ele>105</ele>
        <time>2019-02-02T04:38:28.000Z</time>
      </trkpt>
      <trkpt lat="44.94552" lon="1.06468">
        <ele>105</ele>
        <time>2019-02-02T04:39:28.000Z</time>
      </trkpt>
      <trkpt lat="44.94549" lon="1.06588">
        <ele>107</ele>
        <time>2019-02-02T04:40:28.000Z</time>
      </trkpt>
      <trkpt lat="44.94544" lon="1.06703">
        <ele>108</ele>
        <time>2019-02-02T04:41:28.000Z</time>
      </trkpt>
      <trkpt lat="44.94552" lon="1.06798">
        <ele>105</ele>
        <time>2019-02-02T04:42:28.000Z</time>
      </trkpt>
      <trkpt lat="44.94567" lon="1.06885">
        <ele>103</ele>
        <time>2019-02-02T04:43:28.000Z</time>
      </trkpt>
      <trkpt lat="44.94578" lon="1.06961">
        <ele>101</ele>
        <time>2019-02-02T04:44:28.000Z</time>
      </trkpt>
      <trkpt lat="44.94526" lon="1.07054">
        <ele>120</ele>
        <time>2019-02-02T04:45:28.000Z</time>
      </trkpt>
      <trkpt lat="44.94523" lon="1.07181">
        <ele>116</ele>
        <time>2019-02-02T04:46:28.000Z</time>
      </trkpt>
      <trkpt lat="44.94522" lon="1.07292">
        <ele>108</ele>
        <time>2019-02-02T04:47:28.000Z</time>
      </trkpt>
      <trkpt lat="44.94516" lon="1.07386">
        <ele>105</ele>
        <time>2019-02-02T04:48:28.000Z</time>
      </trkpt>
      <trkpt lat="44.9452" lon="1.07483">
        <ele>101</ele>
        <time>2019-02-02T04:49:28.000Z</time>
      </trkpt>
      <trkpt lat="44.94503" lon="1.07557">
        <ele>102</ele>
        <time>2019-02-02T04:50:28.000Z</time>
      </trkpt>
      <trkpt lat="44.94464" lon="1.07622">
        <ele>107</ele>
        <time>2019-02-02T04:51:28.000Z</time>
      </trkpt>
      <trkpt lat="44.94461" lon="1.07754">
        <ele>104</ele>
        <time>2019-02-02T04:52:28.000Z</time>
      </trkpt>
      <trkpt lat="44.94465" lon="1.07873">
        <ele>107</ele>
        <time>2019-02-02T04:53:28.000Z</time>
      </trkpt>
      <trkpt lat="44.945" lon="1.07962">
        <ele>102</ele>
        <time>2019-02-02T04:54:28.000Z</time>
      </trkpt>
      <trkpt lat="44.94546" lon="1.08109">
        <ele>99</ele>
        <time>2019-02-02T04:55:28.000Z</time>
      </trkpt>
      <trkpt lat="44.94539" lon="1.08271">
        <ele>102</ele>
        <time>2019-02-02T04:56:28.000Z</time>
      </trkpt>
      <trkpt lat="44.94526" lon="1.08426">
        <ele>98</ele>
        <time>2019-02-02T04:57:28.000Z</time>
      </trkpt>
      <trkpt lat="44.94502" lon="1.08554">
        <ele>102</ele>
        <time>2019-02-02T04:58:28.000Z</time>
      </trkpt>
      <trkpt lat="44.94587" lon="1.08631">
        <ele>94</ele>
        <time>2019-02-02T04:59:28.000Z</time>
      </trkpt>
      <trkpt lat="44.94614" lon="1.08769">
        <ele>107</ele>
        <time>2019-02-02T05:00:28.000Z</time>
      </trkpt>
      <trkpt lat="44.94587" lon="1.08841">
        <ele>106</ele>
        <time>2019-02-02T05:01:28.000Z</time>
      </trkpt>
      <trkpt lat="44.94545" lon="1.08966">
        <ele>112</ele>
        <time>2019-02-02T05:02:28.000Z</time>
      </trkpt>
      <trkpt lat="44.94535" lon="1.09001">
        <ele>113</ele>
        <time>2019-02-02T05:03:28.000Z</time>
      </trkpt>
      <trkpt lat="44.94529" lon="1.09052">
        <ele>112</ele>
        <time>2019-02-02T05:04:28.000Z</time>
      </trkpt>
      <trkpt lat="44.94522" lon="1.09107">
        <ele>110</ele>
        <time>2019-02-02T05:05:28.000Z</time>
      </trkpt>
      <trkpt lat="44.94536" lon="1.09142">
        <ele>112</ele>
        <time>2019-02-02T05:06:28.000Z</time>
      </trkpt>
      <trkpt lat="44.94556" lon="1.09163">
        <ele>115</ele>
        <time>2019-02-02T05:07:28.000Z</time>
      </trkpt>
      <trkpt lat="44.94594" lon="1.09159">
        <ele>121</ele>
        <time>2019-02-02T05:08:28.000Z</time>
      </trkpt>
      <trkpt lat="44.94625" lon="1.09166">
        <ele>125</ele>
        <time>2019-02-02T05:09:28.000Z</time>
      </trkpt>
      <trkpt lat="44.94627" lon="1.0919">
        <ele>127</ele>
        <time>2019-02-02T05:10:28.000Z</time>
      </trkpt>
      <trkpt lat="44.94595" lon="1.09228">
        <ele>126</ele>
        <time>2019-02-02T05:11:28.000Z</time>
      </trkpt>
      <trkpt lat="44.94584" lon="1.09262">
        <ele>128</ele>
        <time>2019-02-02T05:12:28.000Z</time>
      </trkpt>
      <trkpt lat="44.94569" lon="1.093">
        <ele>128</ele>
        <time>2019-02-02T05:13:28.000Z</time>
      </trkpt>
      <trkpt lat="44.94554" lon="1.09323">
        <ele>126</ele>
        <time>2019-02-02T05:14:28.000Z</time>
      </trkpt>
      <trkpt lat="44.94558" lon="1.0937">
        <ele>127</ele>
        <time>2019-02-02T05:15:28.000Z</time>
      </trkpt>
      <trkpt lat="44.94568" lon="1.0942">
        <ele>130</ele>
        <time>2019-02-02T05:16:28.000Z</time>
      </trkpt>
      <trkpt lat="44.94563" lon="1.09462">
        <ele>125</ele>
        <time>2019-02-02T05:17:28.000Z</time>
      </trkpt>
      <trkpt lat="44.94581" lon="1.09512">
        <ele>128</ele>
        <time>2019-02-02T05:18:28.000Z</time>
      </trkpt>
      <trkpt lat="44.94634" lon="1.09595">
        <ele>132</ele>
        <time>2019-02-02T05:19:28.000Z</time>
      </trkpt>
      <trkpt lat="44.94614" lon="1.09733">
        <ele>135</ele>
        <time>2019-02-02T05:20:28.000Z</time>
      </trkpt>
      <trkpt lat="44.94603" lon="1.09733">
        <ele>132</ele>
        <time>2019-02-02T05:21:28.000Z</time>
      </trkpt>
      <trkpt lat="44.94595" lon="1.0968">
        <ele>127</ele>
        <time>2019-02-02T05:22:28.000Z</time>
      </trkpt>
      <trkpt lat="44.94601" lon="1.09649">
        <ele>128</ele>
        <time>2019-02-02T05:23:28.000Z</time>
      </trkpt>
      <trkpt lat="44.946" lon="1.09665">
        <ele>128</ele>
        <time>2019-02-02T05:24:28.000Z</time>
      </trkpt>
      <trkpt lat="44.94606" lon="1.09654">
        <ele>129</ele>
        <time>2019-02-02T05:25:28.000Z</time>
      </trkpt>
      <trkpt lat="44.94596" lon="1.09671">
        <ele>127</ele>
        <time>2019-02-02T05:26:28.000Z</time>
      </trkpt>
      <trkpt lat="44.94603" lon="1.09701">
        <ele>131</ele>
        <time>2019-02-02T05:27:28.000Z</time>
      </trkpt>
      <trkpt lat="44.94606" lon="1.09724">
        <ele>133</ele>
        <time>2019-02-02T05:28:28.000Z</time>
      </trkpt>
      <trkpt lat="44.9462" lon="1.09738">
        <ele>137</ele>
        <time>2019-02-02T05:29:28.000Z</time>
      </trkpt>
      <trkpt lat="44.94607" lon="1.09749">
        <ele>134</ele>
        <time>2019-02-02T05:30:28.000Z</time>
      </trkpt>
      <trkpt lat="44.94627" lon="1.09771">
        <ele>139</ele>
        <time>2019-02-02T05:31:28.000Z</time>
      </trkpt>
      <trkpt lat="44.94633" lon="1.09828">
        <ele>140</ele>
        <time>2019-02-02T05:32:28.000Z</time>
      </trkpt>
      <trkpt lat="44.94647" lon="1.09996">
        <ele>140</ele>
        <time>2019-02-02T05:33:28.000Z</time>
      </trkpt>
      <trkpt lat="44.94672" lon="1.10097">
        <ele>139</ele>
        <time>2019-02-02T05:34:28.000Z</time>
      </trkpt>
      <trkpt lat="44.9459" lon="1.10183">
        <ele>142</ele>
        <time>2019-02-02T05:35:28.000Z</time>
      </trkpt>
      <trkpt lat="44.94556" lon="1.10262">
        <ele>136</ele>
        <time>2019-02-02T05:36:28.000Z</time>
      </trkpt>
      <trkpt lat="44.94603" lon="1.10384">
        <ele>134</ele>
        <time>2019-02-02T05:37:28.000Z</time>
      </trkpt>
      <trkpt lat="44.94675" lon="1.1048">
        <ele>130</ele>
        <time>2019-02-02T05:38:28.000Z</time>
      </trkpt>
      <trkpt lat="44.94796" lon="1.10509">
        <ele>137</ele>
        <time>2019-02-02T05:39:28.000Z</time>
      </trkpt>
      <trkpt lat="44.94789" lon="1.10609">
        <ele>128</ele>
        <time>2019-02-02T05:40:28.000Z</time>
      </trkpt>
      <trkpt lat="44.948" lon="1.10727">
        <ele>125</ele>
        <time>2019-02-02T05:41:28.000Z</time>
      </trkpt>
      <trkpt lat="44.94842" lon="1.10825">
        <ele>128</ele>
        <time>2019-02-02T05:42:28.000Z</time>
      </trkpt>
      <trkpt lat="44.94868" lon="1.10934">
        <ele>126</ele>
        <time>2019-02-02T05:43:28.000Z</time>
      </trkpt>
      <trkpt lat="44.94916" lon="1.11017">
        <ele>125</ele>
        <time>2019-02-02T05:44:28.000Z</time>
      </trkpt>
      <trkpt lat="44.94983" lon="1.10997">
        <ele>128</ele>
        <time>2019-02-02T05:45:28.000Z</time>
      </trkpt>
      <trkpt lat="44.95072" lon="1.11062">
        <ele>120</ele>
        <time>2019-02-02T05:46:28.000Z</time>
      </trkpt>
      <trkpt lat="44.95154" lon="1.11124">
        <ele>127</ele>
        <time>2019-02-02T05:47:28.000Z</time>
      </trkpt>
      <trkpt lat="44.95217" lon="1.11196">
        <ele>130</ele>
        <time>2019-02-02T05:48:28.000Z</time>
      </trkpt>
      <trkpt lat="44.95234" lon="1.11392">
        <ele>118</ele>
        <time>2019-02-02T05:49:28.000Z</time>
      </trkpt>
      <trkpt lat="44.95236" lon="1.11526">
        <ele>109</ele>
        <time>2019-02-02T05:50:28.000Z</time>
      </trkpt>
      <trkpt lat="44.95208" lon="1.11535">
        <ele>106</ele>
        <time>2019-02-02T05:51:28.000Z</time>
      </trkpt>
      <trkpt lat="44.95194" lon="1.1154">
        <ele>105</ele>
        <time>2019-02-02T05:52:28.000Z</time>
      </trkpt>
      <trkpt lat="44.9519" lon="1.11562">
        <ele>104</ele>
        <time>2019-02-02T05:53:28.000Z</time>
      </trkpt>
      <trkpt lat="44.95195" lon="1.11588">
        <ele>104</ele>
        <time>2019-02-02T05:54:28.000Z</time>
      </trkpt>
      <trkpt lat="44.95198" lon="1.11613">
        <ele>106</ele>
        <time>2019-02-02T05:55:28.000Z</time>
      </trkpt>
      <trkpt lat="44.95195" lon="1.11631">
        <ele>107</ele>
        <time>2019-02-02T05:56:28.000Z</time>
      </trkpt>
      <trkpt lat="44.9519" lon="1.11647">
        <ele>107</ele>
        <time>2019-02-02T05:57:28.000Z</time>
      </trkpt>
      <trkpt lat="44.95184" lon="1.11665">
        <ele>108</ele>
        <time>2019-02-02T05:58:28.000Z</time>
      </trkpt>
      <trkpt lat="44.95181" lon="1.11682">
        <ele>109</ele>
        <time>2019-02-02T05:59:28.000Z</time>
      </trkpt>
      <trkpt lat="44.95179" lon="1.11696">
        <ele>109</ele>
        <time>2019-02-02T06:00:28.000Z</time>
      </trkpt>
      <trkpt lat="44.95178" lon="1.11714">
        <ele>110</ele>
        <time>2019-02-02T06:01:28.000Z</time>
      </trkpt>
      <trkpt lat="44.95178" lon="1.11732">
        <ele>111</ele>
        <time>2019-02-02T06:02:28.000Z</time>
      </trkpt>
      <trkpt lat="44.95178" lon="1.11745">
        <ele>112</ele>
        <time>2019-02-02T06:03:28.000Z</time>
      </trkpt>
      <trkpt lat="44.95182" lon="1.11777">
        <ele>114</ele>
        <time>2019-02-02T06:04:28.000Z</time>
      </trkpt>
      <trkpt lat="44.95184" lon="1.11795">
        <ele>114</ele>
        <time>2019-02-02T06:05:28.000Z</time>
      </trkpt>
      <trkpt lat="44.95187" lon="1.11809">
        <ele>115</ele>
        <time>2019-02-02T06:06:28.000Z</time>
      </trkpt>
      <trkpt lat="44.95192" lon="1.11827">
        <ele>116</ele>
        <time>2019-02-02T06:07:28.000Z</time>
      </trkpt>
      <trkpt lat="44.95198" lon="1.11842">
        <ele>117</ele>
        <time>2019-02-02T06:08:28.000Z</time>
      </trkpt>
      <trkpt lat="44.95208" lon="1.11859">
        <ele>118</ele>
        <time>2019-02-02T06:09:28.000Z</time>
      </trkpt>
      <trkpt lat="44.9522" lon="1.11879">
        <ele>118</ele>
        <time>2019-02-02T06:10:28.000Z</time>
      </trkpt>
      <trkpt lat="44.95236" lon="1.11896">
        <ele>119</ele>
        <time>2019-02-02T06:11:28.000Z</time>
      </trkpt>
      <trkpt lat="44.95259" lon="1.11915">
        <ele>121</ele>
        <time>2019-02-02T06:12:28.000Z</time>
      </trkpt>
      <trkpt lat="44.95311" lon="1.11973">
        <ele>121</ele>
        <time>2019-02-02T06:13:28.000Z</time>
      </trkpt>
      <trkpt lat="44.95335" lon="1.12004">
        <ele>120</ele>
        <time>2019-02-02T06:14:28.000Z</time>
      </trkpt>
      <trkpt lat="44.95359" lon="1.12028">
        <ele>122</ele>
        <time>2019-02-02T06:15:28.000Z</time>
      </trkpt>
      <trkpt lat="44.95389" lon="1.12049">
        <ele>123</ele>
        <time>2019-02-02T06:16:28.000Z</time>
      </trkpt>
      <trkpt lat="44.95418" lon="1.12068">
        <ele>124</ele>
        <time>2019-02-02T06:17:28.000Z</time>
      </trkpt>
      <trkpt lat="44.95443" lon="1.12082">
        <ele>125</ele>
        <time>2019-02-02T06:18:28.000Z</time>
      </trkpt>
      <trkpt lat="44.9547" lon="1.12096">
        <ele>128</ele>
        <time>2019-02-02T06:19:28.000Z</time>
      </trkpt>
      <trkpt lat="44.95501" lon="1.12116">
        <ele>128</ele>
        <time>2019-02-02T06:20:28.000Z</time>
      </trkpt>
      <trkpt lat="44.95538" lon="1.12138">
        <ele>130</ele>
        <time>2019-02-02T06:21:28.000Z</time>
      </trkpt>
      <trkpt lat="44.95569" lon="1.12162">
        <ele>130</ele>
        <time>2019-02-02T06:22:28.000Z</time>
      </trkpt>
      <trkpt lat="44.95591" lon="1.12181">
        <ele>130</ele>
        <time>2019-02-02T06:23:28.000Z</time>
      </trkpt>
      <trkpt lat="44.95608" lon="1.12211">
        <ele>128</ele>
        <time>2019-02-02T06:24:28.000Z</time>
      </trkpt>
      <trkpt lat="44.95633" lon="1.12247">
        <ele>125</ele>
        <time>2019-02-02T06:25:28.000Z</time>
      </trkpt>
      <trkpt lat="44.95652" lon="1.12277">
        <ele>125</ele>
        <time>2019-02-02T06:26:28.000Z</time>
      </trkpt>
      <trkpt lat="44.9567" lon="1.12312">
        <ele>122</ele>
        <time>2019-02-02T06:27:28.000Z</time>
      </trkpt>
      <trkpt lat="44.95707" lon="1.12393">
        <ele>122</ele>
        <time>2019-02-02T06:28:28.000Z</time>
      </trkpt>
      <trkpt lat="44.95725" lon="1.12436">
        <ele>122</ele>
        <time>2019-02-02T06:29:28.000Z</time>
      </trkpt>
      <trkpt lat="44.9574" lon="1.1247">
        <ele>120</ele>
        <time>2019-02-02T06:30:28.000Z</time>
      </trkpt>
      <trkpt lat="44.95751" lon="1.12505">
        <ele>117</ele>
        <time>2019-02-02T06:31:28.000Z</time>
      </trkpt>
      <trkpt lat="44.95764" lon="1.12535">
        <ele>119</ele>
        <time>2019-02-02T06:32:28.000Z</time>
      </trkpt>
      <trkpt lat="44.95782" lon="1.12568">
        <ele>120</ele>
        <time>2019-02-02T06:33:28.000Z</time>
      </trkpt>
      <trkpt lat="44.95798" lon="1.12601">
        <ele>121</ele>
        <time>2019-02-02T06:34:28.000Z</time>
      </trkpt>
      <trkpt lat="44.95819" lon="1.12662">
        <ele>121</ele>
        <time>2019-02-02T06:35:28.000Z</time>
      </trkpt>
      <trkpt lat="44.95826" lon="1.12691">
        <ele>121</ele>
        <time>2019-02-02T06:36:28.000Z</time>
      </trkpt>
      <trkpt lat="44.95833" lon="1.12719">
        <ele>121</ele>
        <time>2019-02-02T06:37:28.000Z</time>
      </trkpt>
      <trkpt lat="44.9584" lon="1.12754">
        <ele>121</ele>
        <time>2019-02-02T06:38:28.000Z</time>
      </trkpt>
      <trkpt lat="44.95853" lon="1.12784">
        <ele>122</ele>
        <time>2019-02-02T06:39:28.000Z</time>
      </trkpt>
      <trkpt lat="44.95862" lon="1.12819">
        <ele>122</ele>
        <time>2019-02-02T06:40:28.000Z</time>
      </trkpt>
      <trkpt lat="44.95874" lon="1.12844">
        <ele>124</ele>
        <time>2019-02-02T06:41:28.000Z</time>
      </trkpt>
      <trkpt lat="44.95885" lon="1.12877">
        <ele>125</ele>
        <time>2019-02-02T06:42:28.000Z</time>
      </trkpt>
      <trkpt lat="44.95897" lon="1.1291">
        <ele>126</ele>
        <time>2019-02-02T06:43:28.000Z</time>
      </trkpt>
      <trkpt lat="44.95906" lon="1.12939">
        <ele>126</ele>
        <time>2019-02-02T06:44:28.000Z</time>
      </trkpt>
      <trkpt lat="44.95915" lon="1.12967">
        <ele>125</ele>
        <time>2019-02-02T06:45:28.000Z</time>
      </trkpt>
      <trkpt lat="44.95925" lon="1.12992">
        <ele>127</ele>
        <time>2019-02-02T06:46:28.000Z</time>
      </trkpt>
      <trkpt lat="44.95933" lon="1.13023">
        <ele>129</ele>
        <time>2019-02-02T06:47:28.000Z</time>
      </trkpt>
      <trkpt lat="44.95941" lon="1.13055">
        <ele>130</ele>
        <time>2019-02-02T06:48:28.000Z</time>
      </trkpt>
      <trkpt lat="44.95961" lon="1.13114">
        <ele>132</ele>
        <time>2019-02-02T06:49:28.000Z</time>
      </trkpt>
      <trkpt lat="44.95973" lon="1.13145">
        <ele>133</ele>
        <time>2019-02-02T06:50:28.000Z</time>
      </trkpt>
      <trkpt lat="44.95981" lon="1.13169">
        <ele>132</ele>
        <time>2019-02-02T06:51:28.000Z</time>
      </trkpt>
      <trkpt lat="44.95991" lon="1.13201">
        <ele>132</ele>
        <time>2019-02-02T06:52:28.000Z</time>
      </trkpt>
      <trkpt lat="44.95995" lon="1.13228">
        <ele>130</ele>
        <time>2019-02-02T06:53:28.000Z</time>
      </trkpt>
      <trkpt lat="44.95999" lon="1.13256">
        <ele>129</ele>
        <time>2019-02-02T06:54:28.000Z</time>
      </trkpt>
      <trkpt lat="44.96" lon="1.13287">
        <ele>129</ele>
        <time>2019-02-02T06:55:28.000Z</time>
      </trkpt>
      <trkpt lat="44.95999" lon="1.13329">
        <ele>128</ele>
        <time>2019-02-02T06:56:28.000Z</time>
      </trkpt>
      <trkpt lat="44.95992" lon="1.13391">
        <ele>127</ele>
        <time>2019-02-02T06:57:28.000Z</time>
      </trkpt>
      <trkpt lat="44.95986" lon="1.13416">
        <ele>126</ele>
        <time>2019-02-02T06:58:28.000Z</time>
      </trkpt>
      <trkpt lat="44.95982" lon="1.1344">
        <ele>126</ele>
        <time>2019-02-02T06:59:28.000Z</time>
      </trkpt>
      <trkpt lat="44.95975" lon="1.1352">
        <ele>129</ele>
        <time>2019-02-02T07:00:28.000Z</time>
      </trkpt>
      <trkpt lat="44.95966" lon="1.13608">
        <ele>130</ele>
        <time>2019-02-02T07:01:28.000Z</time>
      </trkpt>
      <trkpt lat="44.95961" lon="1.1371">
        <ele>131</ele>
        <time>2019-02-02T07:02:28.000Z</time>
      </trkpt>
      <trkpt lat="44.95979" lon="1.13795">
        <ele>135</ele>
        <time>2019-02-02T07:03:28.000Z</time>
      </trkpt>
      <trkpt lat="44.95991" lon="1.13884">
        <ele>133</ele>
        <time>2019-02-02T07:04:28.000Z</time>
      </trkpt>
      <trkpt lat="44.96013" lon="1.13966">
        <ele>133</ele>
        <time>2019-02-02T07:05:28.000Z</time>
      </trkpt>
      <trkpt lat="44.96036" lon="1.14049">
        <ele>132</ele>
        <time>2019-02-02T07:06:28.000Z</time>
      </trkpt>
      <trkpt lat="44.96056" lon="1.14154">
        <ele>133</ele>
        <time>2019-02-02T07:07:28.000Z</time>
      </trkpt>
      <trkpt lat="44.96072" lon="1.14262">
        <ele>132</ele>
        <time>2019-02-02T07:08:28.000Z</time>
      </trkpt>
      <trkpt lat="44.96141" lon="1.14338">
        <ele>139</ele>
        <time>2019-02-02T07:09:28.000Z</time>
      </trkpt>
      <trkpt lat="44.9619" lon="1.14408">
        <ele>135</ele>
        <time>2019-02-02T07:10:28.000Z</time>
      </trkpt>
      <trkpt lat="44.96241" lon="1.14478">
        <ele>132</ele>
        <time>2019-02-02T07:11:28.000Z</time>
      </trkpt>
      <trkpt lat="44.96286" lon="1.14556">
        <ele>128</ele>
        <time>2019-02-02T07:12:28.000Z</time>
      </trkpt>
      <trkpt lat="44.96313" lon="1.14649">
        <ele>134</ele>
        <time>2019-02-02T07:13:28.000Z</time>
      </trkpt>
      <trkpt lat="44.96347" lon="1.14724">
        <ele>138</ele>
        <time>2019-02-02T07:14:28.000Z</time>
      </trkpt>
      <trkpt lat="44.96397" lon="1.14846">
        <ele>145</ele>
        <time>2019-02-02T07:15:28.000Z</time>
      </trkpt>
      <trkpt lat="44.96436" lon="1.14916">
        <ele>147</ele>
        <time>2019-02-02T07:16:28.000Z</time>
      </trkpt>
      <trkpt lat="44.96454" lon="1.14991">
        <ele>149</ele>
        <time>2019-02-02T07:17:28.000Z</time>
      </trkpt>
      <trkpt lat="44.96471" lon="1.15063">
        <ele>148</ele>
        <time>2019-02-02T07:18:28.000Z</time>
      </trkpt>
      <trkpt lat="44.96482" lon="1.15141">
        <ele>146</ele>
        <time>2019-02-02T07:19:28.000Z</time>
      </trkpt>
      <trkpt lat="44.9648" lon="1.15242">
        <ele>143</ele>
        <time>2019-02-02T07:20:28.000Z</time>
      </trkpt>
      <trkpt lat="44.96481" lon="1.15362">
        <ele>141</ele>
        <time>2019-02-02T07:21:28.000Z</time>
      </trkpt>
      <trkpt lat="44.96492" lon="1.15462">
        <ele>139</ele>
        <time>2019-02-02T07:22:28.000Z</time>
      </trkpt>
      <trkpt lat="44.96489" lon="1.15524">
        <ele>134</ele>
        <time>2019-02-02T07:23:28.000Z</time>
      </trkpt>
      <trkpt lat="44.96496" lon="1.15516">
        <ele>136</ele>
        <time>2019-02-02T07:24:28.000Z</time>
      </trkpt>
      <trkpt lat="44.96507" lon="1.15531">
        <ele>136</ele>
        <time>2019-02-02T07:25:28.000Z</time>
      </trkpt>
      <trkpt lat="44.96501" lon="1.15648">
        <ele>138</ele>
        <time>2019-02-02T07:26:28.000Z</time>
      </trkpt>
      <trkpt lat="44.96492" lon="1.15745">
        <ele>141</ele>
        <time>2019-02-02T07:27:28.000Z</time>
      </trkpt>
      <trkpt lat="44.96505" lon="1.15864">
        <ele>139</ele>
        <time>2019-02-02T07:28:28.000Z</time>
      </trkpt>
      <trkpt lat="44.96615" lon="1.16113">
        <ele>143</ele>
        <time>2019-02-02T07:29:28.000Z</time>
      </trkpt>
      <trkpt lat="44.96654" lon="1.16177">
        <ele>142</ele>
        <time>2019-02-02T07:30:28.000Z</time>
      </trkpt>
      <trkpt lat="44.96663" lon="1.16236">
        <ele>136</ele>
        <time>2019-02-02T07:31:28.000Z</time>
      </trkpt>
      <trkpt lat="44.96683" lon="1.16322">
        <ele>134</ele>
        <time>2019-02-02T07:32:28.000Z</time>
      </trkpt>
      <trkpt lat="44.9668" lon="1.16408">
        <ele>136</ele>
        <time>2019-02-02T07:33:28.000Z</time>
      </trkpt>
      <trkpt lat="44.96649" lon="1.16503">
        <ele>141</ele>
        <time>2019-02-02T07:34:28.000Z</time>
      </trkpt>
      <trkpt lat="44.96632" lon="1.16533">
        <ele>141</ele>
        <time>2019-02-02T07:35:28.000Z</time>
      </trkpt>
      <trkpt lat="44.96632" lon="1.16565">
        <ele>144</ele>
        <time>2019-02-02T07:36:28.000Z</time>
      </trkpt>
      <trkpt lat="44.96621" lon="1.16767">
        <ele>146</ele>
        <time>2019-02-02T07:37:28.000Z</time>
      </trkpt>
      <trkpt lat="44.96663" lon="1.16864">
        <ele>149</ele>
        <time>2019-02-02T07:38:28.000Z</time>
      </trkpt>
      <trkpt lat="44.96696" lon="1.16969">
        <ele>145</ele>
        <time>2019-02-02T07:39:28.000Z</time>
      </trkpt>
      <trkpt lat="44.96711" lon="1.1706">
        <ele>139</ele>
        <time>2019-02-02T07:40:28.000Z</time>
      </trkpt>
      <trkpt lat="44.96726" lon="1.17173">
        <ele>138</ele>
        <time>2019-02-02T07:41:28.000Z</time>
      </trkpt>
      <trkpt lat="44.96744" lon="1.1727">
        <ele>140</ele>
        <time>2019-02-02T07:42:28.000Z</time>
      </trkpt>
      <trkpt lat="44.96758" lon="1.17346">
        <ele>143</ele>
        <time>2019-02-02T07:43:28.000Z</time>
      </trkpt>
      <trkpt lat="44.96771" lon="1.17414">
        <ele>144</ele>
        <time>2019-02-02T07:44:28.000Z</time>
      </trkpt>
      <trkpt lat="44.96787" lon="1.1748">
        <ele>146</ele>
        <time>2019-02-02T07:45:28.000Z</time>
      </trkpt>
      <trkpt lat="44.96856" lon="1.17628">
        <ele>147</ele>
        <time>2019-02-02T07:46:28.000Z</time>
      </trkpt>
      <trkpt lat="44.96915" lon="1.17677">
        <ele>150</ele>
        <time>2019-02-02T07:47:28.000Z</time>
      </trkpt>
      <trkpt lat="44.96994" lon="1.1774">
        <ele>152</ele>
        <time>2019-02-02T07:48:28.000Z</time>
      </trkpt>
      <trkpt lat="44.9706" lon="1.17804">
        <ele>151</ele>
        <time>2019-02-02T07:49:28.000Z</time>
      </trkpt>
      <trkpt lat="44.97131" lon="1.17851">
        <ele>154</ele>
        <time>2019-02-02T07:50:28.000Z</time>
      </trkpt>
      <trkpt lat="44.97185" lon="1.17914">
        <ele>152</ele>
        <time>2019-02-02T07:51:28.000Z</time>
      </trkpt>
      <trkpt lat="44.97228" lon="1.17984">
        <ele>155</ele>
        <time>2019-02-02T07:52:28.000Z</time>
      </trkpt>
      <trkpt lat="44.97248" lon="1.18058">
        <ele>152</ele>
        <time>2019-02-02T07:53:28.000Z</time>
      </trkpt>
      <trkpt lat="44.9727" lon="1.1815">
        <ele>151</ele>
        <time>2019-02-02T07:54:28.000Z</time>
      </trkpt>
      <trkpt lat="44.97289" lon="1.1824">
        <ele>148</ele>
        <time>2019-02-02T07:55:28.000Z</time>
      </trkpt>
      <trkpt lat="44.97316" lon="1.18303">
        <ele>148</ele>
        <time>2019-02-02T07:56:28.000Z</time>
      </trkpt>
      <trkpt lat="44.97352" lon="1.18365">
        <ele>151</ele>
        <time>2019-02-02T07:57:28.000Z</time>
      </trkpt>
      <trkpt lat="44.97396" lon="1.1844">
        <ele>152</ele>
        <time>2019-02-02T07:58:28.000Z</time>
      </trkpt>
      <trkpt lat="44.97456" lon="1.18496">
        <ele>154</ele>
        <time>2019-02-02T07:59:28.000Z</time>
      </trkpt>
      <trkpt lat="44.97526" lon="1.18533">
        <ele>161</ele>
        <time>2019-02-02T08:00:28.000Z</time>
      </trkpt>
      <trkpt lat="44.97587" lon="1.18586">
        <ele>159</ele>
        <time>2019-02-02T08:01:28.000Z</time>
      </trkpt>
      <trkpt lat="44.97643" lon="1.18644">
        <ele>164</ele>
        <time>2019-02-02T08:02:28.000Z</time>
      </trkpt>
      <trkpt lat="44.97685" lon="1.18721">
        <ele>158</ele>
        <time>2019-02-02T08:03:28.000Z</time>
      </trkpt>
      <trkpt lat="44.97738" lon="1.188">
        <ele>159</ele>
        <time>2019-02-02T08:04:28.000Z</time>
      </trkpt>
      <trkpt lat="44.97755" lon="1.18905">
        <ele>155</ele>
        <time>2019-02-02T08:05:28.000Z</time>
      </trkpt>
      <trkpt lat="44.97789" lon="1.19029">
        <ele>154</ele>
        <time>2019-02-02T08:06:28.000Z</time>
      </trkpt>
      <trkpt lat="44.97789" lon="1.19081">
        <ele>156</ele>
        <time>2019-02-02T08:07:28.000Z</time>
      </trkpt>
      <trkpt lat="44.97803" lon="1.19082">
        <ele>158</ele>
        <time>2019-02-02T08:08:28.000Z</time>
      </trkpt>
      <trkpt lat="44.9778" lon="1.19079">
        <ele>155</ele>
        <time>2019-02-02T08:09:28.000Z</time>
      </trkpt>
      <trkpt lat="44.97776" lon="1.19092">
        <ele>155</ele>
        <time>2019-02-02T08:10:28.000Z</time>
      </trkpt>
      <trkpt lat="44.97754" lon="1.19105">
        <ele>152</ele>
        <time>2019-02-02T08:11:28.000Z</time>
      </trkpt>
      <trkpt lat="44.9773" lon="1.19111">
        <ele>151</ele>
        <time>2019-02-02T08:12:28.000Z</time>
      </trkpt>
      <trkpt lat="44.97706" lon="1.19119">
        <ele>151</ele>
        <time>2019-02-02T08:13:28.000Z</time>
      </trkpt>
      <trkpt lat="44.97685" lon="1.19125">
        <ele>151</ele>
        <time>2019-02-02T08:14:28.000Z</time>
      </trkpt>
      <trkpt lat="44.97651" lon="1.19133">
        <ele>151</ele>
        <time>2019-02-02T08:15:28.000Z</time>
      </trkpt>
      <trkpt lat="44.97641" lon="1.1914">
        <ele>151</ele>
        <time>2019-02-02T08:16:28.000Z</time>
      </trkpt>
      <trkpt lat="44.97628" lon="1.19154">
        <ele>151</ele>
        <time>2019-02-02T08:17:28.000Z</time>
      </trkpt>
      <trkpt lat="44.97621" lon="1.19175">
        <ele>152</ele>
        <time>2019-02-02T08:18:28.000Z</time>
      </trkpt>
      <trkpt lat="44.97614" lon="1.19205">
        <ele>154</ele>
        <time>2019-02-02T08:19:28.000Z</time>
      </trkpt>
      <trkpt lat="44.97606" lon="1.1923">
        <ele>156</ele>
        <time>2019-02-02T08:20:28.000Z</time>
      </trkpt>
      <trkpt lat="44.97576" lon="1.19232">
        <ele>156</ele>
        <time>2019-02-02T08:21:28.000Z</time>
      </trkpt>
      <trkpt lat="44.97551" lon="1.19227">
        <ele>155</ele>
        <time>2019-02-02T08:22:28.000Z</time>
      </trkpt>
      <trkpt lat="44.97525" lon="1.19233">
        <ele>156</ele>
        <time>2019-02-02T08:23:28.000Z</time>
      </trkpt>
      <trkpt lat="44.97509" lon="1.19242">
        <ele>156</ele>
        <time>2019-02-02T08:24:28.000Z</time>
      </trkpt>
      <trkpt lat="44.97496" lon="1.19247">
        <ele>156</ele>
        <time>2019-02-02T08:25:28.000Z</time>
      </trkpt>
      <trkpt lat="44.97483" lon="1.19251">
        <ele>158</ele>
        <time>2019-02-02T08:26:28.000Z</time>
      </trkpt>
      <trkpt lat="44.97469" lon="1.19251">
        <ele>159</ele>
        <time>2019-02-02T08:27:28.000Z</time>
      </trkpt>
      <trkpt lat="44.97449" lon="1.19249">
        <ele>161</ele>
        <time>2019-02-02T08:28:28.000Z</time>
      </trkpt>
      <trkpt lat="44.97438" lon="1.19248">
        <ele>162</ele>
        <time>2019-02-02T08:29:28.000Z</time>
      </trkpt>
      <trkpt lat="44.97414" lon="1.19243">
        <ele>165</ele>
        <time>2019-02-02T08:30:28.000Z</time>
      </trkpt>
      <trkpt lat="44.97402" lon="1.19243">
        <ele>166</ele>
        <time>2019-02-02T08:31:28.000Z</time>
      </trkpt>
      <trkpt lat="44.9739" lon="1.19244">
        <ele>167</ele>
        <time>2019-02-02T08:32:28.000Z</time>
      </trkpt>
      <trkpt lat="44.97378" lon="1.19246">
        <ele>167</ele>
        <time>2019-02-02T08:33:28.000Z</time>
      </trkpt>
      <trkpt lat="44.9735" lon="1.1925">
        <ele>169</ele>
        <time>2019-02-02T08:34:28.000Z</time>
      </trkpt>
      <trkpt lat="44.97334" lon="1.19255">
        <ele>170</ele>
        <time>2019-02-02T08:35:28.000Z</time>
      </trkpt>
      <trkpt lat="44.97295" lon="1.1926">
        <ele>169</ele>
        <time>2019-02-02T08:36:28.000Z</time>
      </trkpt>
      <trkpt lat="44.97277" lon="1.19257">
        <ele>169</ele>
        <time>2019-02-02T08:37:28.000Z</time>
      </trkpt>
      <trkpt lat="44.97256" lon="1.19251">
        <ele>169</ele>
        <time>2019-02-02T08:38:28.000Z</time>
      </trkpt>
      <trkpt lat="44.97237" lon="1.19247">
        <ele>170</ele>
        <time>2019-02-02T08:39:28.000Z</time>
      </trkpt>
      <trkpt lat="44.97195" lon="1.19245">
        <ele>172</ele>
        <time>2019-02-02T08:40:28.000Z</time>
      </trkpt>
      <trkpt lat="44.97177" lon="1.19246">
        <ele>172</ele>
        <time>2019-02-02T08:41:28.000Z</time>
      </trkpt>
      <trkpt lat="44.97161" lon="1.19247">
        <ele>173</ele>
        <time>2019-02-02T08:42:28.000Z</time>
      </trkpt>
      <trkpt lat="44.97147" lon="1.19252">
        <ele>174</ele>
        <time>2019-02-02T08:43:28.000Z</time>
      </trkpt>
      <trkpt lat="44.97086" lon="1.19267">
        <ele>179</ele>
        <time>2019-02-02T08:44:28.000Z</time>
      </trkpt>
      <trkpt lat="44.97065" lon="1.19275">
        <ele>181</ele>
        <time>2019-02-02T08:45:28.000Z</time>
      </trkpt>
      <trkpt lat="44.97054" lon="1.1928">
        <ele>182</ele>
        <time>2019-02-02T08:46:28.000Z</time>
      </trkpt>
      <trkpt lat="44.97045" lon="1.19281">
        <ele>183</ele>
        <time>2019-02-02T08:47:28.000Z</time>
      </trkpt>
      <trkpt lat="44.97034" lon="1.1928">
        <ele>183</ele>
        <time>2019-02-02T08:48:28.000Z</time>
      </trkpt>
      <trkpt lat="44.97025" lon="1.19279">
        <ele>184</ele>
        <time>2019-02-02T08:49:28.000Z</time>
      </trkpt>
      <trkpt lat="44.97005" lon="1.19275">
        <ele>184</ele>
        <time>2019-02-02T08:50:28.000Z</time>
      </trkpt>
      <trkpt lat="44.96987" lon="1.19283">
        <ele>186</ele>
        <time>2019-02-02T08:51:28.000Z</time>
      </trkpt>
      <trkpt lat="44.96978" lon="1.1929">
        <ele>188</ele>
        <time>2019-02-02T08:52:28.000Z</time>
      </trkpt>
      <trkpt lat="44.9697" lon="1.19298">
        <ele>189</ele>
        <time>2019-02-02T08:53:28.000Z</time>
      </trkpt>
      <trkpt lat="44.96959" lon="1.193">
        <ele>190</ele>
        <time>2019-02-02T08:54:28.000Z</time>
      </trkpt>
      <trkpt lat="44.96945" lon="1.19304">
        <ele>191</ele>
        <time>2019-02-02T08:55:28.000Z</time>
      </trkpt>
      <trkpt lat="44.96934" lon="1.19309">
        <ele>192</ele>
        <time>2019-02-02T08:56:28.000Z</time>
      </trkpt>
      <trkpt lat="44.96918" lon="1.19328">
        <ele>193</ele>
        <time>2019-02-02T08:57:28.000Z</time>
      </trkpt>
      <trkpt lat="44.96909" lon="1.19333">
        <ele>194</ele>
        <time>2019-02-02T08:58:28.000Z</time>
      </trkpt>
      <trkpt lat="44.96901" lon="1.19341">
        <ele>195</ele>
        <time>2019-02-02T08:59:28.000Z</time>
      </trkpt>
      <trkpt lat="44.96893" lon="1.1935">
        <ele>196</ele>
        <time>2019-02-02T09:00:28.000Z</time>
      </trkpt>
      <trkpt lat="44.96884" lon="1.19359">
        <ele>197</ele>
        <time>2019-02-02T09:01:28.000Z</time>
      </trkpt>
      <trkpt lat="44.96878" lon="1.19371">
        <ele>197</ele>
        <time>2019-02-02T09:02:28.000Z</time>
      </trkpt>
      <trkpt lat="44.96872" lon="1.19381">
        <ele>198</ele>
        <time>2019-02-02T09:03:28.000Z</time>
      </trkpt>
      <trkpt lat="44.96863" lon="1.19387">
        <ele>199</ele>
        <time>2019-02-02T09:04:28.000Z</time>
      </trkpt>
      <trkpt lat="44.96855" lon="1.19394">
        <ele>199</ele>
        <time>2019-02-02T09:05:28.000Z</time>
      </trkpt>
      <trkpt lat="44.96845" lon="1.19405">
        <ele>200</ele>
        <time>2019-02-02T09:06:28.000Z</time>
      </trkpt>
      <trkpt lat="44.96837" lon="1.19418">
        <ele>201</ele>
        <time>2019-02-02T09:07:28.000Z</time>
      </trkpt>
      <trkpt lat="44.9683" lon="1.19431">
        <ele>202</ele>
        <time>2019-02-02T09:08:28.000Z</time>
      </trkpt>
      <trkpt lat="44.96823" lon="1.19442">
        <ele>202</ele>
        <time>2019-02-02T09:09:28.000Z</time>
      </trkpt>
      <trkpt lat="44.9681" lon="1.19452">
        <ele>202</ele>
        <time>2019-02-02T09:10:28.000Z</time>
      </trkpt>
      <trkpt lat="44.96795" lon="1.1946">
        <ele>202</ele>
        <time>2019-02-02T09:11:28.000Z</time>
      </trkpt>
      <trkpt lat="44.96784" lon="1.1947">
        <ele>202</ele>
        <time>2019-02-02T09:12:28.000Z</time>
      </trkpt>
      <trkpt lat="44.96772" lon="1.19478">
        <ele>202</ele>
        <time>2019-02-02T09:13:28.000Z</time>
      </trkpt>
      <trkpt lat="44.96758" lon="1.19483">
        <ele>202</ele>
        <time>2019-02-02T09:14:28.000Z</time>
      </trkpt>
      <trkpt lat="44.96747" lon="1.19484">
        <ele>202</ele>
        <time>2019-02-02T09:15:28.000Z</time>
      </trkpt>
      <trkpt lat="44.96735" lon="1.19484">
        <ele>202</ele>
        <time>2019-02-02T09:16:28.000Z</time>
      </trkpt>
      <trkpt lat="44.96712" lon="1.19484">
        <ele>202</ele>
        <time>2019-02-02T09:17:28.000Z</time>
      </trkpt>
      <trkpt lat="44.96702" lon="1.19486">
        <ele>202</ele>
        <time>2019-02-02T09:18:28.000Z</time>
      </trkpt>
      <trkpt lat="44.96692" lon="1.1949">
        <ele>203</ele>
        <time>2019-02-02T09:19:28.000Z</time>
      </trkpt>
      <trkpt lat="44.96682" lon="1.19495">
        <ele>203</ele>
        <time>2019-02-02T09:20:28.000Z</time>
      </trkpt>
      <trkpt lat="44.96671" lon="1.19502">
        <ele>203</ele>
        <time>2019-02-02T09:21:28.000Z</time>
      </trkpt>
      <trkpt lat="44.9666" lon="1.19511">
        <ele>204</ele>
        <time>2019-02-02T09:22:28.000Z</time>
      </trkpt>
      <trkpt lat="44.96649" lon="1.19521">
        <ele>206</ele>
        <time>2019-02-02T09:23:28.000Z</time>
      </trkpt>
      <trkpt lat="44.96613" lon="1.19548">
        <ele>209</ele>
        <time>2019-02-02T09:24:28.000Z</time>
      </trkpt>
      <trkpt lat="44.96585" lon="1.19567">
        <ele>212</ele>
        <time>2019-02-02T09:25:28.000Z</time>
      </trkpt>
      <trkpt lat="44.96574" lon="1.19572">
        <ele>213</ele>
        <time>2019-02-02T09:26:28.000Z</time>
      </trkpt>
      <trkpt lat="44.96563" lon="1.19573">
        <ele>213</ele>
        <time>2019-02-02T09:27:28.000Z</time>
      </trkpt>
      <trkpt lat="44.96553" lon="1.19575">
        <ele>213</ele>
        <time>2019-02-02T09:28:28.000Z</time>
      </trkpt>
      <trkpt lat="44.96523" lon="1.19586">
        <ele>215</ele>
        <time>2019-02-02T09:29:28.000Z</time>
      </trkpt>
      <trkpt lat="44.96513" lon="1.19594">
        <ele>215</ele>
        <time>2019-02-02T09:30:28.000Z</time>
      </trkpt>
      <trkpt lat="44.96497" lon="1.1961">
        <ele>216</ele>
        <time>2019-02-02T09:31:28.000Z</time>
      </trkpt>
      <trkpt lat="44.96489" lon="1.19618">
        <ele>217</ele>
        <time>2019-02-02T09:32:28.000Z</time>
      </trkpt>
      <trkpt lat="44.96482" lon="1.19625">
        <ele>218</ele>
        <time>2019-02-02T09:33:28.000Z</time>
      </trkpt>
      <trkpt lat="44.96474" lon="1.19633">
        <ele>219</ele>
        <time>2019-02-02T09:34:28.000Z</time>
      </trkpt>
      <trkpt lat="44.96463" lon="1.19643">
        <ele>219</ele>
        <time>2019-02-02T09:35:28.000Z</time>
      </trkpt>
      <trkpt lat="44.96454" lon="1.19653">
        <ele>220</ele>
        <time>2019-02-02T09:36:28.000Z</time>
      </trkpt>
      <trkpt lat="44.96447" lon="1.19661">
        <ele>221</ele>
        <time>2019-02-02T09:37:28.000Z</time>
      </trkpt>
      <trkpt lat="44.96439" lon="1.19673">
        <ele>221</ele>
        <time>2019-02-02T09:38:28.000Z</time>
      </trkpt>
      <trkpt lat="44.96431" lon="1.19682">
        <ele>222</ele>
        <time>2019-02-02T09:39:28.000Z</time>
      </trkpt>
      <trkpt lat="44.96414" lon="1.19703">
        <ele>223</ele>
        <time>2019-02-02T09:40:28.000Z</time>
      </trkpt>
      <trkpt lat="44.96405" lon="1.19714">
        <ele>223</ele>
        <time>2019-02-02T09:41:28.000Z</time>
      </trkpt>
      <trkpt lat="44.96394" lon="1.19721">
        <ele>224</ele>
        <time>2019-02-02T09:42:28.000Z</time>
      </trkpt>
      <trkpt lat="44.96375" lon="1.19725">
        <ele>224</ele>
        <time>2019-02-02T09:43:28.000Z</time>
      </trkpt>
      <trkpt lat="44.96332" lon="1.19749">
        <ele>225</ele>
        <time>2019-02-02T09:44:28.000Z</time>
      </trkpt>
      <trkpt lat="44.96297" lon="1.19729">
        <ele>226</ele>
        <time>2019-02-02T09:45:28.000Z</time>
      </trkpt>
      <trkpt lat="44.96255" lon="1.19712">
        <ele>228</ele>
        <time>2019-02-02T09:46:28.000Z</time>
      </trkpt>
      <trkpt lat="44.96208" lon="1.1972">
        <ele>229</ele>
        <time>2019-02-02T09:47:28.000Z</time>
      </trkpt>
      <trkpt lat="44.96186" lon="1.19695">
        <ele>230</ele>
        <time>2019-02-02T09:48:28.000Z</time>
      </trkpt>
      <trkpt lat="44.9618" lon="1.19639">
        <ele>231</ele>
        <time>2019-02-02T09:49:28.000Z</time>
      </trkpt>
      <trkpt lat="44.96173" lon="1.19594">
        <ele>230</ele>
        <time>2019-02-02T09:50:28.000Z</time>
      </trkpt>
      <trkpt lat="44.96154" lon="1.19543">
        <ele>230</ele>
        <time>2019-02-02T09:51:28.000Z</time>
      </trkpt>
      <trkpt lat="44.9611" lon="1.19563">
        <ele>231</ele>
        <time>2019-02-02T09:52:28.000Z</time>
      </trkpt>
      <trkpt lat="44.96043" lon="1.19587">
        <ele>233</ele>
        <time>2019-02-02T09:53:28.000Z</time>
      </trkpt>
      <trkpt lat="44.95976" lon="1.19583">
        <ele>234</ele>
        <time>2019-02-02T09:54:28.000Z</time>
      </trkpt>
      <trkpt lat="44.95922" lon="1.19546">
        <ele>234</ele>
        <time>2019-02-02T09:55:28.000Z</time>
      </trkpt>
      <trkpt lat="44.9588" lon="1.19483">
        <ele>237</ele>
        <time>2019-02-02T09:56:28.000Z</time>
      </trkpt>
      <trkpt lat="44.95843" lon="1.19394">
        <ele>238</ele>
        <time>2019-02-02T09:57:28.000Z</time>
      </trkpt>
      <trkpt lat="44.95849" lon="1.19306">
        <ele>236</ele>
        <time>2019-02-02T09:58:28.000Z</time>
      </trkpt>
      <trkpt lat="44.95841" lon="1.19237">
        <ele>237</ele>
        <time>2019-02-02T09:59:28.000Z</time>
      </trkpt>
      <trkpt lat="44.95805" lon="1.19186">
        <ele>238</ele>
        <time>2019-02-02T10:00:28.000Z</time>
      </trkpt>
      <trkpt lat="44.95753" lon="1.19152">
        <ele>239</ele>
        <time>2019-02-02T10:01:28.000Z</time>
      </trkpt>
      <trkpt lat="44.95691" lon="1.19124">
        <ele>238</ele>
        <time>2019-02-02T10:02:28.000Z</time>
      </trkpt>
      <trkpt lat="44.95584" lon="1.19058">
        <ele>233</ele>
        <time>2019-02-02T10:03:28.000Z</time>
      </trkpt>
      <trkpt lat="44.95477" lon="1.19106">
        <ele>234</ele>
        <time>2019-02-02T10:04:28.000Z</time>
      </trkpt>
      <trkpt lat="44.95391" lon="1.19085">
        <ele>242</ele>
        <time>2019-02-02T10:05:28.000Z</time>
      </trkpt>
      <trkpt lat="44.95393" lon="1.19065">
        <ele>242</ele>
        <time>2019-02-02T10:06:28.000Z</time>
      </trkpt>
      <trkpt lat="44.95385" lon="1.19014">
        <ele>242</ele>
        <time>2019-02-02T10:07:28.000Z</time>
      </trkpt>
      <trkpt lat="44.95461" lon="1.18815">
        <ele>234</ele>
        <time>2019-02-02T10:08:28.000Z</time>
      </trkpt>
      <trkpt lat="44.95379" lon="1.18791">
        <ele>234</ele>
        <time>2019-02-02T10:09:28.000Z</time>
      </trkpt>
      <trkpt lat="44.95288" lon="1.18717">
        <ele>234</ele>
        <time>2019-02-02T10:10:28.000Z</time>
      </trkpt>
      <trkpt lat="44.95279" lon="1.18623">
        <ele>231</ele>
        <time>2019-02-02T10:11:28.000Z</time>
      </trkpt>
      <trkpt lat="44.95221" lon="1.18539">
        <ele>228</ele>
        <time>2019-02-02T10:12:28.000Z</time>
      </trkpt>
      <trkpt lat="44.95158" lon="1.18458">
        <ele>230</ele>
        <time>2019-02-02T10:13:28.000Z</time>
      </trkpt>
      <trkpt lat="44.95126" lon="1.18435">
        <ele>233</ele>
        <time>2019-02-02T10:14:28.000Z</time>
      </trkpt>
      <trkpt lat="44.95099" lon="1.18425">
        <ele>235</ele>
        <time>2019-02-02T10:15:28.000Z</time>
      </trkpt>
      <trkpt lat="44.95067" lon="1.18429">
        <ele>236</ele>
        <time>2019-02-02T10:16:28.000Z</time>
      </trkpt>
      <trkpt lat="44.95042" lon="1.18468">
        <ele>236</ele>
        <time>2019-02-02T10:17:28.000Z</time>
      </trkpt>
      <trkpt lat="44.94986" lon="1.18515">
        <ele>232</ele>
        <time>2019-02-02T10:18:28.000Z</time>
      </trkpt>
      <trkpt lat="44.94913" lon="1.18692">
        <ele>233</ele>
        <time>2019-02-02T10:19:28.000Z</time>
      </trkpt>
      <trkpt lat="44.94912" lon="1.18957">
        <ele>228</ele>
        <time>2019-02-02T10:20:28.000Z</time>
      </trkpt>
      <trkpt lat="44.9488" lon="1.19104">
        <ele>232</ele>
        <time>2019-02-02T10:21:28.000Z</time>
      </trkpt>
      <trkpt lat="44.94856" lon="1.1921">
        <ele>231</ele>
        <time>2019-02-02T10:22:28.000Z</time>
      </trkpt>
      <trkpt lat="44.948" lon="1.19191">
        <ele>229</ele>
        <time>2019-02-02T10:23:28.000Z</time>
      </trkpt>
      <trkpt lat="44.94774" lon="1.19161">
        <ele>232</ele>
        <time>2019-02-02T10:24:28.000Z</time>
      </trkpt>
      <trkpt lat="44.94766" lon="1.19122">
        <ele>235</ele>
        <time>2019-02-02T10:25:28.000Z</time>
      </trkpt>
      <trkpt lat="44.94749" lon="1.19091">
        <ele>239</ele>
        <time>2019-02-02T10:26:28.000Z</time>
      </trkpt>
      <trkpt lat="44.94733" lon="1.1908">
        <ele>241</ele>
        <time>2019-02-02T10:27:28.000Z</time>
      </trkpt>
      <trkpt lat="44.94716" lon="1.19053">
        <ele>243</ele>
        <time>2019-02-02T10:28:28.000Z</time>
      </trkpt>
      <trkpt lat="44.94693" lon="1.19032">
        <ele>246</ele>
        <time>2019-02-02T10:29:28.000Z</time>
      </trkpt>
      <trkpt lat="44.9467" lon="1.19026">
        <ele>249</ele>
        <time>2019-02-02T10:30:28.000Z</time>
      </trkpt>
      <trkpt lat="44.94613" lon="1.18981">
        <ele>244</ele>
        <time>2019-02-02T10:31:28.000Z</time>
      </trkpt>
      <trkpt lat="44.94555" lon="1.18949">
        <ele>242</ele>
        <time>2019-02-02T10:32:28.000Z</time>
      </trkpt>
      <trkpt lat="44.94497" lon="1.18907">
        <ele>242</ele>
        <time>2019-02-02T10:33:28.000Z</time>
      </trkpt>
      <trkpt lat="44.94448" lon="1.18857">
        <ele>241</ele>
        <time>2019-02-02T10:34:28.000Z</time>
      </trkpt>
      <trkpt lat="44.944" lon="1.18848">
        <ele>244</ele>
        <time>2019-02-02T10:35:28.000Z</time>
      </trkpt>
      <trkpt lat="44.94369" lon="1.18844">
        <ele>247</ele>
        <time>2019-02-02T10:36:28.000Z</time>
      </trkpt>
      <trkpt lat="44.94342" lon="1.18863">
        <ele>251</ele>
        <time>2019-02-02T10:37:28.000Z</time>
      </trkpt>
      <trkpt lat="44.94323" lon="1.18854">
        <ele>253</ele>
        <time>2019-02-02T10:38:28.000Z</time>
      </trkpt>
      <trkpt lat="44.94306" lon="1.18841">
        <ele>255</ele>
        <time>2019-02-02T10:39:28.000Z</time>
      </trkpt>
      <trkpt lat="44.94301" lon="1.18817">
        <ele>255</ele>
        <time>2019-02-02T10:40:28.000Z</time>
      </trkpt>
      <trkpt lat="44.94275" lon="1.18776">
        <ele>258</ele>
        <time>2019-02-02T10:41:28.000Z</time>
      </trkpt>
      <trkpt lat="44.94226" lon="1.1871">
        <ele>263</ele>
        <time>2019-02-02T10:42:28.000Z</time>
      </trkpt>
      <trkpt lat="44.94197" lon="1.18741">
        <ele>267</ele>
        <time>2019-02-02T10:43:28.000Z</time>
      </trkpt>
      <trkpt lat="44.94219" lon="1.1876">
        <ele>265</ele>
        <time>2019-02-02T10:44:28.000Z</time>
      </trkpt>
      <trkpt lat="44.94212" lon="1.1881">
        <ele>266</ele>
        <time>2019-02-02T10:45:28.000Z</time>
      </trkpt>
      <trkpt lat="44.94208" lon="1.18834">
        <ele>266</ele>
        <time>2019-02-02T10:46:28.000Z</time>
      </trkpt>
      <trkpt lat="44.94211" lon="1.18847">
        <ele>266</ele>
        <time>2019-02-02T10:47:28.000Z</time>
      </trkpt>
      <trkpt lat="44.94237" lon="1.18906">
        <ele>266</ele>
        <time>2019-02-02T10:48:28.000Z</time>
      </trkpt>
      <trkpt lat="44.94251" lon="1.18976">
        <ele>268</ele>
        <time>2019-02-02T10:49:28.000Z</time>
      </trkpt>
      <trkpt lat="44.94249" lon="1.1906">
        <ele>270</ele>
        <time>2019-02-02T10:50:28.000Z</time>
      </trkpt>
      <trkpt lat="44.94249" lon="1.19115">
        <ele>272</ele>
        <time>2019-02-02T10:51:28.000Z</time>
      </trkpt>
      <trkpt lat="44.94243" lon="1.19195">
        <ele>274</ele>
        <time>2019-02-02T10:52:28.000Z</time>
      </trkpt>
      <trkpt lat="44.94216" lon="1.1924">
        <ele>273</ele>
        <time>2019-02-02T10:53:28.000Z</time>
      </trkpt>
      <trkpt lat="44.94187" lon="1.19307">
        <ele>274</ele>
        <time>2019-02-02T10:54:28.000Z</time>
      </trkpt>
      <trkpt lat="44.94147" lon="1.19377">
        <ele>276</ele>
        <time>2019-02-02T10:55:28.000Z</time>
      </trkpt>
      <trkpt lat="44.94093" lon="1.19464">
        <ele>277</ele>
        <time>2019-02-02T10:56:28.000Z</time>
      </trkpt>
      <trkpt lat="44.94017" lon="1.19633">
        <ele>281</ele>
        <time>2019-02-02T10:57:28.000Z</time>
      </trkpt>
      <trkpt lat="44.93998" lon="1.19691">
        <ele>281</ele>
        <time>2019-02-02T10:58:28.000Z</time>
      </trkpt>
      <trkpt lat="44.9394" lon="1.19719">
        <ele>283</ele>
        <time>2019-02-02T10:59:28.000Z</time>
      </trkpt>
      <trkpt lat="44.93899" lon="1.19721">
        <ele>284</ele>
        <time>2019-02-02T11:00:28.000Z</time>
      </trkpt>
      <trkpt lat="44.93838" lon="1.19708">
        <ele>286</ele>
        <time>2019-02-02T11:01:28.000Z</time>
      </trkpt>
      <trkpt lat="44.93778" lon="1.19705">
        <ele>288</ele>
        <time>2019-02-02T11:02:28.000Z</time>
      </trkpt>
      <trkpt lat="44.93746" lon="1.19709">
        <ele>289</ele>
        <time>2019-02-02T11:03:28.000Z</time>
      </trkpt>
      <trkpt lat="44.93703" lon="1.19742">
        <ele>288</ele>
        <time>2019-02-02T11:04:28.000Z</time>
      </trkpt>
      <trkpt lat="44.93653" lon="1.19787">
        <ele>292</ele>
        <time>2019-02-02T11:05:28.000Z</time>
      </trkpt>
      <trkpt lat="44.93547" lon="1.19845">
        <ele>293</ele>
        <time>2019-02-02T11:06:28.000Z</time>
      </trkpt>
      <trkpt lat="44.93499" lon="1.19717">
        <ele>287</ele>
        <time>2019-02-02T11:07:28.000Z</time>
      </trkpt>
      <trkpt lat="44.93414" lon="1.19613">
        <ele>279</ele>
        <time>2019-02-02T11:08:28.000Z</time>
      </trkpt>
      <trkpt lat="44.93279" lon="1.1958">
        <ele>273</ele>
        <time>2019-02-02T11:09:28.000Z</time>
      </trkpt>
      <trkpt lat="44.93124" lon="1.19678">
        <ele>264</ele>
        <time>2019-02-02T11:10:28.000Z</time>
      </trkpt>
      <trkpt lat="44.93088" lon="1.19819">
        <ele>263</ele>
        <time>2019-02-02T11:11:28.000Z</time>
      </trkpt>
      <trkpt lat="44.93128" lon="1.1998">
        <ele>265</ele>
        <time>2019-02-02T11:12:28.000Z</time>
      </trkpt>
      <trkpt lat="44.93089" lon="1.20163">
        <ele>259</ele>
        <time>2019-02-02T11:13:28.000Z</time>
      </trkpt>
      <trkpt lat="44.93081" lon="1.20239">
        <ele>262</ele>
        <time>2019-02-02T11:14:28.000Z</time>
      </trkpt>
      <trkpt lat="44.93086" lon="1.2029">
        <ele>263</ele>
        <time>2019-02-02T11:15:28.000Z</time>
      </trkpt>
      <trkpt lat="44.93112" lon="1.20363">
        <ele>265</ele>
        <time>2019-02-02T11:16:28.000Z</time>
      </trkpt>
      <trkpt lat="44.931" lon="1.20407">
        <ele>269</ele>
        <time>2019-02-02T11:17:28.000Z</time>
      </trkpt>
      <trkpt lat="44.93077" lon="1.20447">
        <ele>272</ele>
        <time>2019-02-02T11:18:28.000Z</time>
      </trkpt>
      <trkpt lat="44.93032" lon="1.20485">
        <ele>273</ele>
        <time>2019-02-02T11:19:28.000Z</time>
      </trkpt>
      <trkpt lat="44.93008" lon="1.20495">
        <ele>274</ele>
        <time>2019-02-02T11:20:28.000Z</time>
      </trkpt>
      <trkpt lat="44.92973" lon="1.20507">
        <ele>274</ele>
        <time>2019-02-02T11:21:28.000Z</time>
      </trkpt>
      <trkpt lat="44.92933" lon="1.20529">
        <ele>274</ele>
        <time>2019-02-02T11:22:28.000Z</time>
      </trkpt>
      <trkpt lat="44.92917" lon="1.20535">
        <ele>274</ele>
        <time>2019-02-02T11:23:28.000Z</time>
      </trkpt>
      <trkpt lat="44.92881" lon="1.20469">
        <ele>274</ele>
        <time>2019-02-02T11:24:28.000Z</time>
      </trkpt>
      <trkpt lat="44.92836" lon="1.20453">
        <ele>276</ele>
        <time>2019-02-02T11:25:28.000Z</time>
      </trkpt>
      <trkpt lat="44.92802" lon="1.20441">
        <ele>279</ele>
        <time>2019-02-02T11:26:28.000Z</time>
      </trkpt>
      <trkpt lat="44.92787" lon="1.20403">
        <ele>281</ele>
        <time>2019-02-02T11:27:28.000Z</time>
      </trkpt>
      <trkpt lat="44.9277" lon="1.20376">
        <ele>283</ele>
        <time>2019-02-02T11:28:28.000Z</time>
      </trkpt>
      <trkpt lat="44.92747" lon="1.20341">
        <ele>285</ele>
        <time>2019-02-02T11:29:28.000Z</time>
      </trkpt>
      <trkpt lat="44.9273" lon="1.2028">
        <ele>289</ele>
        <time>2019-02-02T11:30:28.000Z</time>
      </trkpt>
      <trkpt lat="44.92709" lon="1.20256">
        <ele>293</ele>
        <time>2019-02-02T11:31:28.000Z</time>
      </trkpt>
      <trkpt lat="44.92699" lon="1.20245">
        <ele>295</ele>
        <time>2019-02-02T11:32:28.000Z</time>
      </trkpt>
      <trkpt lat="44.92652" lon="1.20216">
        <ele>302</ele>
        <time>2019-02-02T11:33:28.000Z</time>
      </trkpt>
      <trkpt lat="44.92624" lon="1.2022">
        <ele>304</ele>
        <time>2019-02-02T11:34:28.000Z</time>
      </trkpt>
      <trkpt lat="44.92605" lon="1.20231">
        <ele>306</ele>
        <time>2019-02-02T11:35:28.000Z</time>
      </trkpt>
      <trkpt lat="44.92593" lon="1.20225">
        <ele>307</ele>
        <time>2019-02-02T11:36:28.000Z</time>
      </trkpt>
      <trkpt lat="44.92547" lon="1.20206">
        <ele>306</ele>
        <time>2019-02-02T11:37:28.000Z</time>
      </trkpt>
      <trkpt lat="44.92526" lon="1.20174">
        <ele>306</ele>
        <time>2019-02-02T11:38:28.000Z</time>
      </trkpt>
      <trkpt lat="44.92506" lon="1.20171">
        <ele>306</ele>
        <time>2019-02-02T11:39:28.000Z</time>
      </trkpt>
      <trkpt lat="44.925" lon="1.20189">
        <ele>305</ele>
        <time>2019-02-02T11:40:28.000Z</time>
      </trkpt>
      <trkpt lat="44.92447" lon="1.20241">
        <ele>294</ele>
        <time>2019-02-02T11:41:28.000Z</time>
      </trkpt>
      <trkpt lat="44.92446" lon="1.20351">
        <ele>292</ele>
        <time>2019-02-02T11:42:28.000Z</time>
      </trkpt>
      <trkpt lat="44.92401" lon="1.2043">
        <ele>279</ele>
        <time>2019-02-02T11:43:28.000Z</time>
      </trkpt>
      <trkpt lat="44.92357" lon="1.20449">
        <ele>268</ele>
        <time>2019-02-02T11:44:28.000Z</time>
      </trkpt>
      <trkpt lat="44.92336" lon="1.20499">
        <ele>262</ele>
        <time>2019-02-02T11:45:28.000Z</time>
      </trkpt>
      <trkpt lat="44.92307" lon="1.20582">
        <ele>253</ele>
        <time>2019-02-02T11:46:28.000Z</time>
      </trkpt>
      <trkpt lat="44.92278" lon="1.20638">
        <ele>248</ele>
        <time>2019-02-02T11:47:28.000Z</time>
      </trkpt>
      <trkpt lat="44.92189" lon="1.2067">
        <ele>245</ele>
        <time>2019-02-02T11:48:28.000Z</time>
      </trkpt>
      <trkpt lat="44.92024" lon="1.20597">
        <ele>239</ele>
        <time>2019-02-02T11:49:28.000Z</time>
      </trkpt>
      <trkpt lat="44.9191" lon="1.20526">
        <ele>229</ele>
        <time>2019-02-02T11:50:28.000Z</time>
      </trkpt>
      <trkpt lat="44.91759" lon="1.20546">
        <ele>220</ele>
        <time>2019-02-02T11:51:28.000Z</time>
      </trkpt>
      <trkpt lat="44.91631" lon="1.20614">
        <ele>215</ele>
        <time>2019-02-02T11:52:28.000Z</time>
      </trkpt>
      <trkpt lat="44.91444" lon="1.20609">
        <ele>202</ele>
        <time>2019-02-02T11:53:28.000Z</time>
      </trkpt>
      <trkpt lat="44.91296" lon="1.207">
        <ele>199</ele>
        <time>2019-02-02T11:54:28.000Z</time>
      </trkpt>
      <trkpt lat="44.91142" lon="1.20678">
        <ele>188</ele>
        <time>2019-02-02T11:55:28.000Z</time>
      </trkpt>
      <trkpt lat="44.90992" lon="1.20617">
        <ele>182</ele>
        <time>2019-02-02T11:56:28.000Z</time>
      </trkpt>
      <trkpt lat="44.90851" lon="1.20597">
        <ele>177</ele>
        <time>2019-02-02T11:57:28.000Z</time>
      </trkpt>
      <trkpt lat="44.90718" lon="1.20652">
        <ele>175</ele>
        <time>2019-02-02T11:58:28.000Z</time>
      </trkpt>
      <trkpt lat="44.90621" lon="1.20705">
        <ele>172</ele>
        <time>2019-02-02T11:59:28.000Z</time>
      </trkpt>
      <trkpt lat="44.90531" lon="1.2078">
        <ele>173</ele>
        <time>2019-02-02T12:00:28.000Z</time>
      </trkpt>
      <trkpt lat="44.90457" lon="1.20852">
        <ele>171</ele>
        <time>2019-02-02T12:01:28.000Z</time>
      </trkpt>
      <trkpt lat="44.90372" lon="1.20971">
        <ele>172</ele>
        <time>2019-02-02T12:02:28.000Z</time>
      </trkpt>
      <trkpt lat="44.90303" lon="1.2103">
        <ele>172</ele>
        <time>2019-02-02T12:03:28.000Z</time>
      </trkpt>
      <trkpt lat="44.90224" lon="1.21052">
        <ele>173</ele>
        <time>2019-02-02T12:04:28.000Z</time>
      </trkpt>
      <trkpt lat="44.90138" lon="1.21088">
        <ele>172</ele>
        <time>2019-02-02T12:05:28.000Z</time>
      </trkpt>
      <trkpt lat="44.90056" lon="1.21149">
        <ele>169</ele>
        <time>2019-02-02T12:06:28.000Z</time>
      </trkpt>
      <trkpt lat="44.90004" lon="1.21101">
        <ele>174</ele>
        <time>2019-02-02T12:07:28.000Z</time>
      </trkpt>
      <trkpt lat="44.89827" lon="1.21271">
        <ele>160</ele>
        <time>2019-02-02T12:08:28.000Z</time>
      </trkpt>
      <trkpt lat="44.89723" lon="1.21321">
        <ele>159</ele>
        <time>2019-02-02T12:09:28.000Z</time>
      </trkpt>
      <trkpt lat="44.89559" lon="1.21426">
        <ele>155</ele>
        <time>2019-02-02T12:10:28.000Z</time>
      </trkpt>
      <trkpt lat="44.89473" lon="1.21474">
        <ele>154</ele>
        <time>2019-02-02T12:11:28.000Z</time>
      </trkpt>
      <trkpt lat="44.89389" lon="1.21526">
        <ele>152</ele>
        <time>2019-02-02T12:12:28.000Z</time>
      </trkpt>
      <trkpt lat="44.89345" lon="1.21543">
        <ele>150</ele>
        <time>2019-02-02T12:13:28.000Z</time>
      </trkpt>
      <trkpt lat="44.89305" lon="1.2153">
        <ele>150</ele>
        <time>2019-02-02T12:14:28.000Z</time>
      </trkpt>
      <trkpt lat="44.89202" lon="1.21522">
        <ele>151</ele>
        <time>2019-02-02T12:15:28.000Z</time>
      </trkpt>
      <trkpt lat="44.89135" lon="1.21529">
        <ele>151</ele>
        <time>2019-02-02T12:16:28.000Z</time>
      </trkpt>
      <trkpt lat="44.89102" lon="1.21546">
        <ele>152</ele>
        <time>2019-02-02T12:17:28.000Z</time>
      </trkpt>
      <trkpt lat="44.89075" lon="1.21556">
        <ele>152</ele>
        <time>2019-02-02T12:18:28.000Z</time>
      </trkpt>
      <trkpt lat="44.89015" lon="1.21568">
        <ele>151</ele>
        <time>2019-02-02T12:19:28.000Z</time>
      </trkpt>
      <trkpt lat="44.89005" lon="1.21578">
        <ele>150</ele>
        <time>2019-02-02T12:20:28.000Z</time>
      </trkpt>
      <trkpt lat="44.89011" lon="1.21549">
        <ele>152</ele>
        <time>2019-02-02T12:21:28.000Z</time>
      </trkpt>
      <trkpt lat="44.89009" lon="1.21565">
        <ele>151</ele>
        <time>2019-02-02T12:22:28.000Z</time>
      </trkpt>
      <trkpt lat="44.88922" lon="1.21609">
        <ele>148</ele>
        <time>2019-02-02T12:23:28.000Z</time>
      </trkpt>
      <trkpt lat="44.88875" lon="1.21617">
        <ele>147</ele>
        <time>2019-02-02T12:24:28.000Z</time>
      </trkpt>
      <trkpt lat="44.88831" lon="1.21626">
        <ele>146</ele>
        <time>2019-02-02T12:25:28.000Z</time>
      </trkpt>
      <trkpt lat="44.88779" lon="1.21655">
        <ele>143</ele>
        <time>2019-02-02T12:26:28.000Z</time>
      </trkpt>
      <trkpt lat="44.88754" lon="1.21637">
        <ele>143</ele>
        <time>2019-02-02T12:27:28.000Z</time>
      </trkpt>
      <trkpt lat="44.88741" lon="1.21604">
        <ele>143</ele>
        <time>2019-02-02T12:28:28.000Z</time>
      </trkpt>
      <trkpt lat="44.88731" lon="1.21667">
        <ele>142</ele>
        <time>2019-02-02T12:29:28.000Z</time>
      </trkpt>
      <trkpt lat="44.88718" lon="1.21642">
        <ele>142</ele>
        <time>2019-02-02T12:30:28.000Z</time>
      </trkpt>
      <trkpt lat="44.887" lon="1.21627">
        <ele>142</ele>
        <time>2019-02-02T12:31:28.000Z</time>
      </trkpt>
      <trkpt lat="44.88645" lon="1.21637">
        <ele>141</ele>
        <time>2019-02-02T12:32:28.000Z</time>
      </trkpt>
      <trkpt lat="44.88585" lon="1.21659">
        <ele>138</ele>
        <time>2019-02-02T12:33:28.000Z</time>
      </trkpt>
      <trkpt lat="44.88534" lon="1.21641">
        <ele>141</ele>
        <time>2019-02-02T12:34:28.000Z</time>
      </trkpt>
      <trkpt lat="44.88445" lon="1.21629">
        <ele>142</ele>
        <time>2019-02-02T12:35:28.000Z</time>
      </trkpt>
      <trkpt lat="44.88405" lon="1.21625">
        <ele>141</ele>
        <time>2019-02-02T12:36:28.000Z</time>
      </trkpt>
      <trkpt lat="44.88357" lon="1.21615">
        <ele>140</ele>
        <time>2019-02-02T12:37:28.000Z</time>
      </trkpt>
      <trkpt lat="44.88356" lon="1.216">
        <ele>141</ele>
        <time>2019-02-02T12:38:28.000Z</time>
      </trkpt>
      <trkpt lat="44.88339" lon="1.216">
        <ele>140</ele>
        <time>2019-02-02T12:39:28.000Z</time>
      </trkpt>
      <trkpt lat="44.8829" lon="1.21591">
        <ele>138</ele>
        <time>2019-02-02T12:40:28.000Z</time>
      </trkpt>
      <trkpt lat="44.8823" lon="1.21578">
        <ele>136</ele>
        <time>2019-02-02T12:41:28.000Z</time>
      </trkpt>
      <trkpt lat="44.88159" lon="1.21563">
        <ele>134</ele>
        <time>2019-02-02T12:42:28.000Z</time>
      </trkpt>
      <trkpt lat="44.88093" lon="1.21551">
        <ele>133</ele>
        <time>2019-02-02T12:43:28.000Z</time>
      </trkpt>
      <trkpt lat="44.88044" lon="1.21557">
        <ele>133</ele>
        <time>2019-02-02T12:44:28.000Z</time>
      </trkpt>
      <trkpt lat="44.87941" lon="1.21605">
        <ele>131</ele>
        <time>2019-02-02T12:45:28.000Z</time>
      </trkpt>
      <trkpt lat="44.87901" lon="1.21613">
        <ele>130</ele>
        <time>2019-02-02T12:46:28.000Z</time>
      </trkpt>
      <trkpt lat="44.87869" lon="1.21624">
        <ele>130</ele>
        <time>2019-02-02T12:47:28.000Z</time>
      </trkpt>
      <trkpt lat="44.8784" lon="1.21716">
        <ele>129</ele>
        <time>2019-02-02T12:48:28.000Z</time>
      </trkpt>
      <trkpt lat="44.87822" lon="1.21762">
        <ele>131</ele>
        <time>2019-02-02T12:49:28.000Z</time>
      </trkpt>
      <trkpt lat="44.8781" lon="1.21805">
        <ele>137</ele>
        <time>2019-02-02T12:50:28.000Z</time>
      </trkpt>
      <trkpt lat="44.878" lon="1.21841">
        <ele>141</ele>
        <time>2019-02-02T12:51:28.000Z</time>
      </trkpt>
      <trkpt lat="44.87774" lon="1.219">
        <ele>144</ele>
        <time>2019-02-02T12:52:28.000Z</time>
      </trkpt>
      <trkpt lat="44.87766" lon="1.21926">
        <ele>145</ele>
        <time>2019-02-02T12:53:28.000Z</time>
      </trkpt>
      <trkpt lat="44.87754" lon="1.21953">
        <ele>147</ele>
        <time>2019-02-02T12:54:28.000Z</time>
      </trkpt>
      <trkpt lat="44.87746" lon="1.21984">
        <ele>148</ele>
        <time>2019-02-02T12:55:28.000Z</time>
      </trkpt>
      <trkpt lat="44.87748" lon="1.22017">
        <ele>151</ele>
        <time>2019-02-02T12:56:28.000Z</time>
      </trkpt>
      <trkpt lat="44.87753" lon="1.22054">
        <ele>155</ele>
        <time>2019-02-02T12:57:28.000Z</time>
      </trkpt>
      <trkpt lat="44.87745" lon="1.22084">
        <ele>155</ele>
        <time>2019-02-02T12:58:28.000Z</time>
      </trkpt>
      <trkpt lat="44.8774" lon="1.2212">
        <ele>158</ele>
        <time>2019-02-02T12:59:28.000Z</time>
      </trkpt>
      <trkpt lat="44.87728" lon="1.2216">
        <ele>159</ele>
        <time>2019-02-02T13:00:28.000Z</time>
      </trkpt>
      <trkpt lat="44.87721" lon="1.22207">
        <ele>163</ele>
        <time>2019-02-02T13:01:28.000Z</time>
      </trkpt>
      <trkpt lat="44.87697" lon="1.22254">
        <ele>162</ele>
        <time>2019-02-02T13:02:28.000Z</time>
      </trkpt>
      <trkpt lat="44.87686" lon="1.22299">
        <ele>166</ele>
        <time>2019-02-02T13:03:28.000Z</time>
      </trkpt>
      <trkpt lat="44.87665" lon="1.2233">
        <ele>163</ele>
        <time>2019-02-02T13:04:28.000Z</time>
      </trkpt>
      <trkpt lat="44.87649" lon="1.22389">
        <ele>165</ele>
        <time>2019-02-02T13:05:28.000Z</time>
      </trkpt>
      <trkpt lat="44.87634" lon="1.22462">
        <ele>163</ele>
        <time>2019-02-02T13:06:28.000Z</time>
      </trkpt>
      <trkpt lat="44.87601" lon="1.22597">
        <ele>157</ele>
        <time>2019-02-02T13:07:28.000Z</time>
      </trkpt>
      <trkpt lat="44.87528" lon="1.22752">
        <ele>154</ele>
        <time>2019-02-02T13:08:28.000Z</time>
      </trkpt>
      <trkpt lat="44.87532" lon="1.22848">
        <ele>154</ele>
        <time>2019-02-02T13:09:28.000Z</time>
      </trkpt>
      <trkpt lat="44.87523" lon="1.22958">
        <ele>156</ele>
        <time>2019-02-02T13:10:28.000Z</time>
      </trkpt>
      <trkpt lat="44.8751" lon="1.23013">
        <ele>157</ele>
        <time>2019-02-02T13:11:28.000Z</time>
      </trkpt>
      <trkpt lat="44.87479" lon="1.23064">
        <ele>157</ele>
        <time>2019-02-02T13:12:28.000Z</time>
      </trkpt>
      <trkpt lat="44.87488" lon="1.23148">
        <ele>157</ele>
        <time>2019-02-02T13:13:28.000Z</time>
      </trkpt>
      <trkpt lat="44.87469" lon="1.23164">
        <ele>157</ele>
        <time>2019-02-02T13:14:28.000Z</time>
      </trkpt>
      <trkpt lat="44.87436" lon="1.23253">
        <ele>156</ele>
        <time>2019-02-02T13:15:28.000Z</time>
      </trkpt>
      <trkpt lat="44.87391" lon="1.23362">
        <ele>156</ele>
        <time>2019-02-02T13:16:28.000Z</time>
      </trkpt>
      <trkpt lat="44.87349" lon="1.23463">
        <ele>158</ele>
        <time>2019-02-02T13:17:28.000Z</time>
      </trkpt>
      <trkpt lat="44.873" lon="1.23575">
        <ele>157</ele>
        <time>2019-02-02T13:18:28.000Z</time>
      </trkpt>
      <trkpt lat="44.87255" lon="1.23673">
        <ele>154</ele>
        <time>2019-02-02T13:19:28.000Z</time>
      </trkpt>
      <trkpt lat="44.8722" lon="1.23775">
        <ele>146</ele>
        <time>2019-02-02T13:20:28.000Z</time>
      </trkpt>
      <trkpt lat="44.87179" lon="1.23887">
        <ele>143</ele>
        <time>2019-02-02T13:21:28.000Z</time>
      </trkpt>
      <trkpt lat="44.87144" lon="1.23985">
        <ele>143</ele>
        <time>2019-02-02T13:22:28.000Z</time>
      </trkpt>
      <trkpt lat="44.87089" lon="1.24079">
        <ele>145</ele>
        <time>2019-02-02T13:23:28.000Z</time>
      </trkpt>
      <trkpt lat="44.87038" lon="1.24167">
        <ele>143</ele>
        <time>2019-02-02T13:24:28.000Z</time>
      </trkpt>
      <trkpt lat="44.8698" lon="1.24256">
        <ele>146</ele>
        <time>2019-02-02T13:25:28.000Z</time>
      </trkpt>
      <trkpt lat="44.8692" lon="1.24343">
        <ele>140</ele>
        <time>2019-02-02T13:26:28.000Z</time>
      </trkpt>
      <trkpt lat="44.86862" lon="1.24435">
        <ele>136</ele>
        <time>2019-02-02T13:27:28.000Z</time>
      </trkpt>
      <trkpt lat="44.86791" lon="1.24527">
        <ele>138</ele>
        <time>2019-02-02T13:28:28.000Z</time>
      </trkpt>
      <trkpt lat="44.8672" lon="1.24614">
        <ele>142</ele>
        <time>2019-02-02T13:29:28.000Z</time>
      </trkpt>
      <trkpt lat="44.86658" lon="1.24714">
        <ele>136</ele>
        <time>2019-02-02T13:30:28.000Z</time>
      </trkpt>
      <trkpt lat="44.86596" lon="1.24811">
        <ele>133</ele>
        <time>2019-02-02T13:31:28.000Z</time>
      </trkpt>
      <trkpt lat="44.8651" lon="1.24875">
        <ele>131</ele>
        <time>2019-02-02T13:32:28.000Z</time>
      </trkpt>
      <trkpt lat="44.86453" lon="1.24937">
        <ele>129</ele>
        <time>2019-02-02T13:33:28.000Z</time>
      </trkpt>
      <trkpt lat="44.86466" lon="1.249">
        <ele>131</ele>
        <time>2019-02-02T13:34:28.000Z</time>
      </trkpt>
      <trkpt lat="44.86485" lon="1.24866">
        <ele>133</ele>
        <time>2019-02-02T13:35:28.000Z</time>
      </trkpt>
      <trkpt lat="44.86478" lon="1.2481">
        <ele>135</ele>
        <time>2019-02-02T13:36:28.000Z</time>
      </trkpt>
      <trkpt lat="44.86471" lon="1.24759">
        <ele>137</ele>
        <time>2019-02-02T13:37:28.000Z</time>
      </trkpt>
      <trkpt lat="44.86464" lon="1.24705">
        <ele>139</ele>
        <time>2019-02-02T13:38:28.000Z</time>
      </trkpt>
      <trkpt lat="44.86456" lon="1.2466">
        <ele>142</ele>
        <time>2019-02-02T13:39:28.000Z</time>
      </trkpt>
      <trkpt lat="44.86446" lon="1.24606">
        <ele>144</ele>
        <time>2019-02-02T13:40:28.000Z</time>
      </trkpt>
      <trkpt lat="44.86437" lon="1.24553">
        <ele>146</ele>
        <time>2019-02-02T13:41:28.000Z</time>
      </trkpt>
      <trkpt lat="44.86428" lon="1.24497">
        <ele>148</ele>
        <time>2019-02-02T13:42:28.000Z</time>
      </trkpt>
      <trkpt lat="44.86407" lon="1.24456">
        <ele>149</ele>
        <time>2019-02-02T13:43:28.000Z</time>
      </trkpt>
      <trkpt lat="44.86391" lon="1.24402">
        <ele>148</ele>
        <time>2019-02-02T13:44:28.000Z</time>
      </trkpt>
      <trkpt lat="44.86324" lon="1.24255">
        <ele>136</ele>
        <time>2019-02-02T13:45:28.000Z</time>
      </trkpt>
      <trkpt lat="44.86259" lon="1.24111">
        <ele>130</ele>
        <time>2019-02-02T13:46:28.000Z</time>
      </trkpt>
      <trkpt lat="44.86208" lon="1.23995">
        <ele>129</ele>
        <time>2019-02-02T13:47:28.000Z</time>
      </trkpt>
      <trkpt lat="44.86186" lon="1.23995">
        <ele>129</ele>
        <time>2019-02-02T13:48:28.000Z</time>
      </trkpt>
      <trkpt lat="44.8615" lon="1.24056">
        <ele>128</ele>
        <time>2019-02-02T13:49:28.000Z</time>
      </trkpt>
      <trkpt lat="44.86098" lon="1.24115">
        <ele>128</ele>
        <time>2019-02-02T13:50:28.000Z</time>
      </trkpt>
      <trkpt lat="44.8603" lon="1.24157">
        <ele>127</ele>
        <time>2019-02-02T13:51:28.000Z</time>
      </trkpt>
      <trkpt lat="44.85969" lon="1.24196">
        <ele>126</ele>
        <time>2019-02-02T13:52:28.000Z</time>
      </trkpt>
      <trkpt lat="44.85913" lon="1.24227">
        <ele>126</ele>
        <time>2019-02-02T13:53:28.000Z</time>
      </trkpt>
      <trkpt lat="44.85862" lon="1.24248">
        <ele>127</ele>
        <time>2019-02-02T13:54:28.000Z</time>
      </trkpt>
      <trkpt lat="44.85801" lon="1.24266">
        <ele>129</ele>
        <time>2019-02-02T13:55:28.000Z</time>
      </trkpt>
      <trkpt lat="44.85756" lon="1.24278">
        <ele>132</ele>
        <time>2019-02-02T13:56:28.000Z</time>
      </trkpt>
      <trkpt lat="44.85735" lon="1.24278">
        <ele>135</ele>
        <time>2019-02-02T13:57:28.000Z</time>
      </trkpt>
      <trkpt lat="44.85716" lon="1.24253">
        <ele>136</ele>
        <time>2019-02-02T13:58:28.000Z</time>
      </trkpt>
      <trkpt lat="44.85731" lon="1.24187">
        <ele>132</ele>
        <time>2019-02-02T13:59:28.000Z</time>
      </trkpt>
      <trkpt lat="44.8577" lon="1.24145">
        <ele>129</ele>
        <time>2019-02-02T14:00:28.000Z</time>
      </trkpt>
      <trkpt lat="44.85798" lon="1.24072">
        <ele>129</ele>
        <time>2019-02-02T14:01:28.000Z</time>
      </trkpt>
      <trkpt lat="44.85808" lon="1.23999">
        <ele>131</ele>
        <time>2019-02-02T14:02:28.000Z</time>
      </trkpt>
      <trkpt lat="44.85812" lon="1.23933">
        <ele>133</ele>
        <time>2019-02-02T14:03:28.000Z</time>
      </trkpt>
      <trkpt lat="44.85809" lon="1.23867">
        <ele>135</ele>
        <time>2019-02-02T14:04:28.000Z</time>
      </trkpt>
      <trkpt lat="44.8581" lon="1.23797">
        <ele>138</ele>
        <time>2019-02-02T14:05:28.000Z</time>
      </trkpt>
      <trkpt lat="44.85776" lon="1.23735">
        <ele>142</ele>
        <time>2019-02-02T14:06:28.000Z</time>
      </trkpt>
      <trkpt lat="44.85731" lon="1.23725">
        <ele>143</ele>
        <time>2019-02-02T14:07:28.000Z</time>
      </trkpt>
      <trkpt lat="44.85728" lon="1.2374">
        <ele>142</ele>
        <time>2019-02-02T14:08:28.000Z</time>
      </trkpt>
      <trkpt lat="44.85735" lon="1.23731">
        <ele>143</ele>
        <time>2019-02-02T14:09:28.000Z</time>
      </trkpt>
    </trkseg>
  </trk>
</gpx>